<?xml version="1.0" encoding="UTF-8" standalone="no" ?>
<gpx xmlns="http://www.topografix.com/GPX/1/1" xmlns:xsi="http://www.w3.org/2001/XMLSchema-instance" xsi:schemaLocation="http://www.topografix.com/GPX/1/1 http://www.topografix.com/GPX/1/1/gpx.xsd" version="1.1" creator="VisuGPX - https://www.visugpx.com">
  <metadata>
    <name>Orchamp Vennes Ascap 4 traces</name>
    <desc><![CDATA[Les 4 traces pour la reco Orchamp vennes; ]]></desc>
  </metadata>
  <trk>
    <name><![CDATA[Orchamp Vennes Reverot modifié]]></name>
    <extensions>
      <line xmlns="http://www.topografix.com/GPX/gpx_style/0/2">
        <color>1e00ff</color>
        <width>4</width>
          <extensions>
            <sens>1</sens>
          </extensions>
      </line>
    </extensions>
    <trkseg>
      <trkpt lat="47.12957" lon="6.52546">
        <ele>753.1</ele>
        <time>2023-01-15T17:14:31.689Z</time>
        <extensions>
          <visugpx:TrkExtension xmlns:visugpx="https://www.visugpx.com/editgpx/">
            <visugpx:node>1</visugpx:node>
            </visugpx:TrkExtension>
        </extensions>
      </trkpt>
      <trkpt lat="47.12979" lon="6.52521">
        <ele>753</ele>
        <time>2023-01-15T17:14:37.889Z</time>
      </trkpt>
      <trkpt lat="47.12997" lon="6.52533">
        <ele>754.1</ele>
        <time>2023-01-15T17:14:42.430Z</time>
      </trkpt>
      <trkpt lat="47.13" lon="6.52535">
        <ele>754.3</ele>
        <time>2023-01-15T17:14:42.998Z</time>
      </trkpt>
      <trkpt lat="47.13021" lon="6.52551">
        <ele>755.6</ele>
        <time>2023-01-15T17:14:48.328Z</time>
      </trkpt>
      <trkpt lat="47.1303" lon="6.52556">
        <ele>756</ele>
        <time>2023-01-15T17:14:50.425Z</time>
      </trkpt>
      <trkpt lat="47.13042" lon="6.52526">
        <ele>755.5</ele>
        <time>2023-01-15T17:14:56.026Z</time>
      </trkpt>
      <trkpt lat="47.13054" lon="6.52509">
        <ele>755.9</ele>
        <time>2023-01-15T17:15:00.203Z</time>
      </trkpt>
      <trkpt lat="47.13061" lon="6.52502">
        <ele>756.2</ele>
        <time>2023-01-15T17:15:02.134Z</time>
      </trkpt>
      <trkpt lat="47.13092" lon="6.52486">
        <ele>758.1</ele>
        <time>2023-01-15T17:15:10.642Z</time>
      </trkpt>
      <trkpt lat="47.13116" lon="6.52478">
        <ele>760</ele>
        <time>2023-01-15T17:15:17.308Z</time>
      </trkpt>
      <trkpt lat="47.13137" lon="6.52454">
        <ele>761.6</ele>
        <time>2023-01-15T17:15:24.185Z</time>
      </trkpt>
      <trkpt lat="47.13149" lon="6.52438">
        <ele>763.1</ele>
        <time>2023-01-15T17:15:28.218Z</time>
      </trkpt>
      <trkpt lat="47.13162" lon="6.52431">
        <ele>764.2</ele>
        <time>2023-01-15T17:15:31.925Z</time>
      </trkpt>
      <trkpt lat="47.13185" lon="6.52423">
        <ele>765.4</ele>
        <time>2023-01-15T17:15:38.104Z</time>
      </trkpt>
      <trkpt lat="47.13188" lon="6.52421">
        <ele>765.6</ele>
        <time>2023-01-15T17:15:39.217Z</time>
      </trkpt>
      <trkpt lat="47.13201" lon="6.52416">
        <ele>766.5</ele>
        <time>2023-01-15T17:15:42.886Z</time>
      </trkpt>
      <trkpt lat="47.13212" lon="6.52411">
        <ele>767.6</ele>
        <time>2023-01-15T17:15:46.425Z</time>
      </trkpt>
      <trkpt lat="47.13219" lon="6.52408">
        <ele>768.1</ele>
        <time>2023-01-15T17:15:48.215Z</time>
      </trkpt>
      <trkpt lat="47.1324" lon="6.52399">
        <ele>769.7</ele>
        <time>2023-01-15T17:15:55.198Z</time>
      </trkpt>
      <trkpt lat="47.13267" lon="6.524">
        <ele>772.1</ele>
        <time>2023-01-15T17:16:04.024Z</time>
      </trkpt>
      <trkpt lat="47.13287" lon="6.52408">
        <ele>773.3</ele>
        <time>2023-01-15T17:16:11.452Z</time>
      </trkpt>
      <trkpt lat="47.13316" lon="6.52428">
        <ele>774.7</ele>
        <time>2023-01-15T17:16:23.212Z</time>
      </trkpt>
      <trkpt lat="47.13332" lon="6.524">
        <ele>778.1</ele>
        <time>2023-01-15T17:16:31.611Z</time>
      </trkpt>
      <trkpt lat="47.13333" lon="6.52391">
        <ele>778.8</ele>
        <time>2023-01-15T17:16:33.993Z</time>
      </trkpt>
      <trkpt lat="47.13359" lon="6.52398">
        <ele>782.1</ele>
        <time>2023-01-15T17:16:43.413Z</time>
      </trkpt>
      <trkpt lat="47.13389" lon="6.52401">
        <ele>785.5</ele>
        <time>2023-01-15T17:16:53.983Z</time>
      </trkpt>
      <trkpt lat="47.13393" lon="6.52372">
        <ele>787</ele>
        <time>2023-01-15T17:17:02.264Z</time>
      </trkpt>
      <trkpt lat="47.13403" lon="6.52344">
        <ele>788.9</ele>
        <time>2023-01-15T17:17:10.038Z</time>
      </trkpt>
      <trkpt lat="47.1342" lon="6.52269">
        <ele>792.7</ele>
        <time>2023-01-15T17:17:31.098Z</time>
      </trkpt>
      <trkpt lat="47.1342" lon="6.52243">
        <ele>793.8</ele>
        <time>2023-01-15T17:17:37.694Z</time>
      </trkpt>
      <trkpt lat="47.13413" lon="6.52187">
        <ele>796.4</ele>
        <time>2023-01-15T17:17:51.497Z</time>
      </trkpt>
      <trkpt lat="47.13408" lon="6.52172">
        <ele>797.5</ele>
        <time>2023-01-15T17:17:55.411Z</time>
      </trkpt>
      <trkpt lat="47.13402" lon="6.52152">
        <ele>799</ele>
        <time>2023-01-15T17:17:59.988Z</time>
      </trkpt>
      <trkpt lat="47.1338" lon="6.52129">
        <ele>800.6</ele>
        <time>2023-01-15T17:18:08.254Z</time>
      </trkpt>
      <trkpt lat="47.13338" lon="6.52087">
        <ele>805.6</ele>
        <time>2023-01-15T17:18:25.406Z</time>
      </trkpt>
      <trkpt lat="47.13316" lon="6.52055">
        <ele>809.5</ele>
        <time>2023-01-15T17:18:35.710Z</time>
      </trkpt>
      <trkpt lat="47.13299" lon="6.52026">
        <ele>812.3</ele>
        <time>2023-01-15T17:18:43.957Z</time>
      </trkpt>
      <trkpt lat="47.1329" lon="6.52005">
        <ele>814</ele>
        <time>2023-01-15T17:18:49.401Z</time>
      </trkpt>
      <trkpt lat="47.13281" lon="6.51976">
        <ele>816</ele>
        <time>2023-01-15T17:18:56.561Z</time>
      </trkpt>
      <trkpt lat="47.13278" lon="6.51926">
        <ele>819.4</ele>
        <time>2023-01-15T17:19:08.184Z</time>
      </trkpt>
      <trkpt lat="47.13278" lon="6.51913">
        <ele>820.3</ele>
        <time>2023-01-15T17:19:11.082Z</time>
      </trkpt>
      <trkpt lat="47.13275" lon="6.51785">
        <ele>828.3</ele>
        <time>2023-01-15T17:19:43.769Z</time>
      </trkpt>
      <trkpt lat="47.13233" lon="6.51528">
        <ele>845.6</ele>
        <time>2023-01-15T17:20:57.194Z</time>
      </trkpt>
      <trkpt lat="47.13221" lon="6.51404">
        <ele>852.8</ele>
        <time>2023-01-15T17:21:30.179Z</time>
      </trkpt>
      <trkpt lat="47.1322" lon="6.51365">
        <ele>855.4</ele>
        <time>2023-01-15T17:21:40.304Z</time>
      </trkpt>
      <trkpt lat="47.13245" lon="6.51359">
        <ele>857</ele>
        <time>2023-01-15T17:21:50.106Z</time>
      </trkpt>
      <trkpt lat="47.13255" lon="6.51371">
        <ele>857.4</ele>
        <time>2023-01-15T17:21:54.691Z</time>
      </trkpt>
      <trkpt lat="47.13289" lon="6.51434">
        <ele>860</ele>
        <time>2023-01-15T17:22:14.792Z</time>
      </trkpt>
      <trkpt lat="47.13367" lon="6.51546">
        <ele>866.8</ele>
        <time>2023-01-15T17:23:01.488Z</time>
      </trkpt>
      <trkpt lat="47.13412" lon="6.51582">
        <ele>871.6</ele>
        <time>2023-01-15T17:23:26.097Z</time>
      </trkpt>
      <trkpt lat="47.1345" lon="6.51616">
        <ele>873.3</ele>
        <time>2023-01-15T17:23:46.635Z</time>
      </trkpt>
      <trkpt lat="47.13468" lon="6.51646">
        <ele>873</ele>
        <time>2023-01-15T17:24:02.026Z</time>
      </trkpt>
      <trkpt lat="47.13475" lon="6.51645">
        <ele>874</ele>
        <time>2023-01-15T17:24:05.957Z</time>
      </trkpt>
      <trkpt lat="47.13489" lon="6.5162">
        <ele>877.7</ele>
        <time>2023-01-15T17:24:18.263Z</time>
      </trkpt>
      <trkpt lat="47.13493" lon="6.51579">
        <ele>881.5</ele>
        <time>2023-01-15T17:24:35.517Z</time>
      </trkpt>
      <trkpt lat="47.13486" lon="6.5154">
        <ele>883.6</ele>
        <time>2023-01-15T17:24:52.274Z</time>
      </trkpt>
      <trkpt lat="47.13492" lon="6.51469">
        <ele>889</ele>
        <time>2023-01-15T17:25:21.930Z</time>
      </trkpt>
      <trkpt lat="47.13506" lon="6.51371">
        <ele>898.9</ele>
        <time>2023-01-15T17:26:02.210Z</time>
      </trkpt>
      <trkpt lat="47.1352" lon="6.51305">
        <ele>906.2</ele>
        <time>2023-01-15T17:26:29.391Z</time>
      </trkpt>
      <trkpt lat="47.13539" lon="6.5119">
        <ele>914</ele>
        <time>2023-01-15T17:27:15.245Z</time>
      </trkpt>
      <trkpt lat="47.13543" lon="6.51167">
        <ele>915.6</ele>
        <time>2023-01-15T17:27:24.213Z</time>
      </trkpt>
      <trkpt lat="47.13551" lon="6.51146">
        <ele>917.4</ele>
        <time>2023-01-15T17:27:31.789Z</time>
      </trkpt>
      <trkpt lat="47.13556" lon="6.51112">
        <ele>918.9</ele>
        <time>2023-01-15T17:27:42.977Z</time>
      </trkpt>
      <trkpt lat="47.13564" lon="6.5109">
        <ele>920.4</ele>
        <time>2023-01-15T17:27:50.750Z</time>
      </trkpt>
      <trkpt lat="47.13613" lon="6.5103">
        <ele>925</ele>
        <time>2023-01-15T17:28:17.358Z</time>
      </trkpt>
      <trkpt lat="47.13638" lon="6.51011">
        <ele>926.5</ele>
        <time>2023-01-15T17:28:27.059Z</time>
      </trkpt>
      <trkpt lat="47.13665" lon="6.51">
        <ele>928</ele>
        <time>2023-01-15T17:28:35.604Z</time>
      </trkpt>
      <trkpt lat="47.1374" lon="6.50962">
        <ele>930.9</ele>
        <time>2023-01-15T17:28:58.144Z</time>
      </trkpt>
      <trkpt lat="47.13806" lon="6.50912">
        <ele>891.9</ele>
        <time>2023-01-15T17:29:17.046Z</time>
      </trkpt>
      <trkpt lat="47.13808" lon="6.50892">
        <ele>888.4</ele>
        <time>2023-01-15T17:29:20.284Z</time>
      </trkpt>
      <trkpt lat="47.13802" lon="6.50864">
        <ele>890.4</ele>
        <time>2023-01-15T17:29:25.023Z</time>
      </trkpt>
      <trkpt lat="47.13796" lon="6.5086">
        <ele>895.3</ele>
        <time>2023-01-15T17:29:26.576Z</time>
      </trkpt>
      <trkpt lat="47.13787" lon="6.50862">
        <ele>903.3</ele>
        <time>2023-01-15T17:29:28.638Z</time>
      </trkpt>
      <trkpt lat="47.13779" lon="6.50838">
        <ele>907.6</ele>
        <time>2023-01-15T17:29:32.738Z</time>
      </trkpt>
      <trkpt lat="47.1378" lon="6.50782">
        <ele>898</ele>
        <time>2023-01-15T17:29:41.088Z</time>
      </trkpt>
      <trkpt lat="47.13776" lon="6.5076">
        <ele>895.7</ele>
        <time>2023-01-15T17:29:44.433Z</time>
      </trkpt>
      <trkpt lat="47.13778" lon="6.50729">
        <ele>887.6</ele>
        <time>2023-01-15T17:29:49.241Z</time>
      </trkpt>
      <trkpt lat="47.13776" lon="6.50709">
        <ele>885.5</ele>
        <time>2023-01-15T17:29:52.298Z</time>
      </trkpt>
      <trkpt lat="47.13776" lon="6.50705">
        <ele>885</ele>
        <time>2023-01-15T17:29:52.931Z</time>
      </trkpt>
      <trkpt lat="47.1377" lon="6.50687">
        <ele>886.1</ele>
        <time>2023-01-15T17:29:55.976Z</time>
      </trkpt>
      <trkpt lat="47.13732" lon="6.50613">
        <ele>900.6</ele>
        <time>2023-01-15T17:30:10.189Z</time>
      </trkpt>
      <trkpt lat="47.1372" lon="6.50598">
        <ele>906.1</ele>
        <time>2023-01-15T17:30:13.757Z</time>
      </trkpt>
      <trkpt lat="47.13701" lon="6.5056">
        <ele>911.3</ele>
        <time>2023-01-15T17:30:20.878Z</time>
      </trkpt>
      <trkpt lat="47.13693" lon="6.50537">
        <ele>910.1</ele>
        <time>2023-01-15T17:30:24.792Z</time>
      </trkpt>
      <trkpt lat="47.1363" lon="6.50434">
        <ele>898.4</ele>
        <time>2023-01-15T17:30:45.830Z</time>
      </trkpt>
      <trkpt lat="47.13575" lon="6.50394">
        <ele>894.6</ele>
        <time>2023-01-15T17:30:59.936Z</time>
      </trkpt>
      <trkpt lat="47.13575" lon="6.50394">
        <ele>894.6</ele>
        <time>2023-01-15T17:31:00.058Z</time>
      </trkpt>
      <trkpt lat="47.13575" lon="6.50394">
        <ele>894.6</ele>
        <time>2023-01-15T17:31:00.058Z</time>
      </trkpt>
      <trkpt lat="47.1357" lon="6.50409">
        <ele>896.2</ele>
        <time>2023-01-15T17:31:04.927Z</time>
      </trkpt>
      <trkpt lat="47.1352" lon="6.50364">
        <ele>892.2</ele>
        <time>2023-01-15T17:31:30.046Z</time>
      </trkpt>
      <trkpt lat="47.13528" lon="6.50315">
        <ele>887</ele>
        <time>2023-01-15T17:31:44.736Z</time>
      </trkpt>
      <trkpt lat="47.1352" lon="6.50274">
        <ele>882.9</ele>
        <time>2023-01-15T17:31:57.172Z</time>
      </trkpt>
      <trkpt lat="47.13494" lon="6.50218">
        <ele>876.8</ele>
        <time>2023-01-15T17:32:16.939Z</time>
      </trkpt>
      <trkpt lat="47.13484" lon="6.50184">
        <ele>871.1</ele>
        <time>2023-01-15T17:32:27.733Z</time>
      </trkpt>
      <trkpt lat="47.1349" lon="6.50137">
        <ele>866.5</ele>
        <time>2023-01-15T17:32:41.666Z</time>
      </trkpt>
      <trkpt lat="47.13494" lon="6.50092">
        <ele>862.6</ele>
        <time>2023-01-15T17:32:54.886Z</time>
      </trkpt>
      <trkpt lat="47.13504" lon="6.50047">
        <ele>856.2</ele>
        <time>2023-01-15T17:33:08.673Z</time>
      </trkpt>
      <trkpt lat="47.13579" lon="6.50074">
        <ele>851.5</ele>
        <time>2023-01-15T17:33:41.721Z</time>
      </trkpt>
      <trkpt lat="47.13614" lon="6.50145">
        <ele>850</ele>
        <time>2023-01-15T17:34:07.241Z</time>
      </trkpt>
      <trkpt lat="47.13637" lon="6.50192">
        <ele>850.1</ele>
        <time>2023-01-15T17:34:24.089Z</time>
      </trkpt>
      <trkpt lat="47.13682" lon="6.50242">
        <ele>846.7</ele>
        <time>2023-01-15T17:34:48.220Z</time>
      </trkpt>
      <trkpt lat="47.13748" lon="6.5033">
        <ele>843</ele>
        <time>2023-01-15T17:35:26.327Z</time>
      </trkpt>
      <trkpt lat="47.13752" lon="6.50325">
        <ele>841.4</ele>
        <time>2023-01-15T17:35:28.382Z</time>
      </trkpt>
      <trkpt lat="47.13759" lon="6.50336">
        <ele>840.8</ele>
        <time>2023-01-15T17:35:31.511Z</time>
      </trkpt>
      <trkpt lat="47.13784" lon="6.50403">
        <ele>840.9</ele>
        <time>2023-01-15T17:35:47.698Z</time>
      </trkpt>
      <trkpt lat="47.13819" lon="6.50518">
        <ele>843.1</ele>
        <time>2023-01-15T17:36:14.311Z</time>
      </trkpt>
      <trkpt lat="47.13853" lon="6.50611">
        <ele>842.7</ele>
        <time>2023-01-15T17:36:38.307Z</time>
      </trkpt>
      <trkpt lat="47.13872" lon="6.50707">
        <ele>847</ele>
        <time>2023-01-15T17:37:00.512Z</time>
      </trkpt>
      <trkpt lat="47.13887" lon="6.50807">
        <ele>850.3</ele>
        <time>2023-01-15T17:37:22.384Z</time>
      </trkpt>
      <trkpt lat="47.13902" lon="6.51001">
        <ele>858.3</ele>
        <time>2023-01-15T17:38:02.767Z</time>
      </trkpt>
      <trkpt lat="47.13907" lon="6.51103">
        <ele>858.3</ele>
        <time>2023-01-15T17:38:20.419Z</time>
      </trkpt>
      <trkpt lat="47.13926" lon="6.51171">
        <ele>854</ele>
        <time>2023-01-15T17:38:31.860Z</time>
      </trkpt>
      <trkpt lat="47.13965" lon="6.51187">
        <ele>845.5</ele>
        <time>2023-01-15T17:38:40.452Z</time>
      </trkpt>
      <trkpt lat="47.14034" lon="6.51098">
        <ele>840</ele>
        <time>2023-01-15T17:39:00.207Z</time>
      </trkpt>
      <trkpt lat="47.14053" lon="6.51083">
        <ele>840.8</ele>
        <time>2023-01-15T17:39:04.636Z</time>
      </trkpt>
      <trkpt lat="47.14067" lon="6.50896">
        <ele>840.1</ele>
        <time>2023-01-15T17:39:32.227Z</time>
      </trkpt>
      <trkpt lat="47.14069" lon="6.50706">
        <ele>834.6</ele>
        <time>2023-01-15T17:40:01.370Z</time>
      </trkpt>
      <trkpt lat="47.14079" lon="6.50585">
        <ele>830.1</ele>
        <time>2023-01-15T17:40:20.017Z</time>
      </trkpt>
      <trkpt lat="47.14078" lon="6.50513">
        <ele>828.7</ele>
        <time>2023-01-15T17:40:31.201Z</time>
      </trkpt>
      <trkpt lat="47.14072" lon="6.50496">
        <ele>827</ele>
        <time>2023-01-15T17:40:33.978Z</time>
      </trkpt>
      <trkpt lat="47.14045" lon="6.50367">
        <ele>813.5</ele>
        <time>2023-01-15T17:40:55.091Z</time>
      </trkpt>
      <trkpt lat="47.14046" lon="6.50335">
        <ele>810.5</ele>
        <time>2023-01-15T17:40:59.954Z</time>
      </trkpt>
      <trkpt lat="47.14046" lon="6.5032">
        <ele>809.2</ele>
        <time>2023-01-15T17:41:02.456Z</time>
      </trkpt>
      <trkpt lat="47.1405" lon="6.50307">
        <ele>808.1</ele>
        <time>2023-01-15T17:41:04.665Z</time>
      </trkpt>
      <trkpt lat="47.14064" lon="6.50312">
        <ele>807.7</ele>
        <time>2023-01-15T17:41:07.856Z</time>
      </trkpt>
      <trkpt lat="47.14097" lon="6.50284">
        <ele>799</ele>
        <time>2023-01-15T17:41:15.986Z</time>
      </trkpt>
      <trkpt lat="47.1416" lon="6.50227">
        <ele>787.7</ele>
        <time>2023-01-15T17:41:31.248Z</time>
      </trkpt>
      <trkpt lat="47.14176" lon="6.50193">
        <ele>787.8</ele>
        <time>2023-01-15T17:41:37.149Z</time>
      </trkpt>
      <trkpt lat="47.1421" lon="6.50131">
        <ele>783.7</ele>
        <time>2023-01-15T17:41:43.804Z</time>
      </trkpt>
      <trkpt lat="47.14284" lon="6.5004">
        <ele>774</ele>
        <time>2023-01-15T17:41:55.436Z</time>
      </trkpt>
      <trkpt lat="47.1434" lon="6.49995">
        <ele>767.1</ele>
        <time>2023-01-15T17:42:03.341Z</time>
      </trkpt>
      <trkpt lat="47.14372" lon="6.49978">
        <ele>762.4</ele>
        <time>2023-01-15T17:42:07.738Z</time>
      </trkpt>
      <trkpt lat="47.14364" lon="6.49939">
        <ele>760.6</ele>
        <time>2023-01-15T17:42:11.349Z</time>
      </trkpt>
      <trkpt lat="47.14362" lon="6.49909">
        <ele>756.4</ele>
        <time>2023-01-15T17:42:13.984Z</time>
      </trkpt>
      <trkpt lat="47.14378" lon="6.49907">
        <ele>755.3</ele>
        <time>2023-01-15T17:42:16.059Z</time>
      </trkpt>
      <trkpt lat="47.14393" lon="6.49902">
        <ele>754.5</ele>
        <time>2023-01-15T17:42:17.963Z</time>
      </trkpt>
      <trkpt lat="47.1442" lon="6.49893">
        <ele>754.2</ele>
        <time>2023-01-15T17:42:21.536Z</time>
      </trkpt>
      <trkpt lat="47.14434" lon="6.49889">
        <ele>753.4</ele>
        <time>2023-01-15T17:42:23.386Z</time>
      </trkpt>
      <trkpt lat="47.14478" lon="6.49875">
        <ele>753.6</ele>
        <time>2023-01-15T17:42:30.037Z</time>
      </trkpt>
      <trkpt lat="47.14508" lon="6.4986">
        <ele>754.2</ele>
        <time>2023-01-15T17:42:35.550Z</time>
      </trkpt>
      <trkpt lat="47.14567" lon="6.49828">
        <ele>755</ele>
        <time>2023-01-15T17:42:49.936Z</time>
      </trkpt>
      <trkpt lat="47.14599" lon="6.49817">
        <ele>755.1</ele>
        <time>2023-01-15T17:42:58.392Z</time>
      </trkpt>
      <trkpt lat="47.14615" lon="6.49815">
        <ele>755.3</ele>
        <time>2023-01-15T17:43:02.494Z</time>
      </trkpt>
      <trkpt lat="47.14666" lon="6.49823">
        <ele>756.3</ele>
        <time>2023-01-15T17:43:15.265Z</time>
      </trkpt>
      <trkpt lat="47.14677" lon="6.49826">
        <ele>756.5</ele>
        <time>2023-01-15T17:43:17.697Z</time>
      </trkpt>
      <trkpt lat="47.14695" lon="6.4983">
        <ele>756.8</ele>
        <time>2023-01-15T17:43:21.793Z</time>
      </trkpt>
      <trkpt lat="47.1474" lon="6.4984">
        <ele>758</ele>
        <time>2023-01-15T17:43:30.628Z</time>
      </trkpt>
      <trkpt lat="47.14772" lon="6.4984">
        <ele>758.5</ele>
        <time>2023-01-15T17:43:35.882Z</time>
      </trkpt>
      <trkpt lat="47.148" lon="6.49831">
        <ele>760.1</ele>
        <time>2023-01-15T17:43:39.979Z</time>
      </trkpt>
      <trkpt lat="47.14816" lon="6.49822">
        <ele>760.8</ele>
        <time>2023-01-15T17:43:42.365Z</time>
      </trkpt>
      <trkpt lat="47.14819" lon="6.49817">
        <ele>760.8</ele>
        <time>2023-01-15T17:43:43.061Z</time>
      </trkpt>
      <trkpt lat="47.14832" lon="6.49802">
        <ele>761.4</ele>
        <time>2023-01-15T17:43:45.383Z</time>
      </trkpt>
      <trkpt lat="47.14843" lon="6.4977">
        <ele>761.2</ele>
        <time>2023-01-15T17:43:48.612Z</time>
      </trkpt>
      <trkpt lat="47.14857" lon="6.49672">
        <ele>761.4</ele>
        <time>2023-01-15T17:43:57.596Z</time>
      </trkpt>
      <trkpt lat="47.14881" lon="6.49565">
        <ele>760.2</ele>
        <time>2023-01-15T17:44:08.265Z</time>
      </trkpt>
      <trkpt lat="47.14905" lon="6.49468">
        <ele>757.6</ele>
        <time>2023-01-15T17:44:18.843Z</time>
      </trkpt>
      <trkpt lat="47.14928" lon="6.49396">
        <ele>754.9</ele>
        <time>2023-01-15T17:44:27.138Z</time>
      </trkpt>
      <trkpt lat="47.14938" lon="6.49373">
        <ele>754.2</ele>
        <time>2023-01-15T17:44:29.907Z</time>
      </trkpt>
      <trkpt lat="47.14946" lon="6.49357">
        <ele>753.7</ele>
        <time>2023-01-15T17:44:31.967Z</time>
      </trkpt>
      <trkpt lat="47.14953" lon="6.49344">
        <ele>752.8</ele>
        <time>2023-01-15T17:44:33.621Z</time>
      </trkpt>
      <trkpt lat="47.14969" lon="6.49329">
        <ele>751.7</ele>
        <time>2023-01-15T17:44:36.445Z</time>
      </trkpt>
      <trkpt lat="47.14993" lon="6.49311">
        <ele>749.7</ele>
        <time>2023-01-15T17:44:40.319Z</time>
      </trkpt>
      <trkpt lat="47.15042" lon="6.49285">
        <ele>746.9</ele>
        <time>2023-01-15T17:44:47.998Z</time>
      </trkpt>
      <trkpt lat="47.15099" lon="6.49266">
        <ele>743.3</ele>
        <time>2023-01-15T17:44:56.917Z</time>
      </trkpt>
      <trkpt lat="47.1511" lon="6.49263">
        <ele>743</ele>
        <time>2023-01-15T17:44:58.731Z</time>
      </trkpt>
      <trkpt lat="47.15137" lon="6.49264">
        <ele>742.1</ele>
        <time>2023-01-15T17:45:03.120Z</time>
      </trkpt>
      <trkpt lat="47.15156" lon="6.49278">
        <ele>742</ele>
        <time>2023-01-15T17:45:06.810Z</time>
      </trkpt>
      <trkpt lat="47.15169" lon="6.49302">
        <ele>742</ele>
        <time>2023-01-15T17:45:10.465Z</time>
      </trkpt>
      <trkpt lat="47.15185" lon="6.49341">
        <ele>743.1</ele>
        <time>2023-01-15T17:45:16.452Z</time>
      </trkpt>
      <trkpt lat="47.15244" lon="6.49447">
        <ele>746.1</ele>
        <time>2023-01-15T17:45:35.847Z</time>
      </trkpt>
      <trkpt lat="47.15257" lon="6.4947">
        <ele>746.7</ele>
        <time>2023-01-15T17:45:39.912Z</time>
      </trkpt>
      <trkpt lat="47.1528" lon="6.49513">
        <ele>747.4</ele>
        <time>2023-01-15T17:45:46.625Z</time>
      </trkpt>
      <trkpt lat="47.15296" lon="6.4954">
        <ele>747.6</ele>
        <time>2023-01-15T17:45:50.543Z</time>
      </trkpt>
      <trkpt lat="47.1531" lon="6.49553">
        <ele>746.7</ele>
        <time>2023-01-15T17:45:53.128Z</time>
      </trkpt>
      <trkpt lat="47.1534" lon="6.49564">
        <ele>745.3</ele>
        <time>2023-01-15T17:45:57.747Z</time>
      </trkpt>
      <trkpt lat="47.15352" lon="6.49563">
        <ele>744.7</ele>
        <time>2023-01-15T17:45:59.491Z</time>
      </trkpt>
      <trkpt lat="47.15368" lon="6.49552">
        <ele>743.6</ele>
        <time>2023-01-15T17:46:01.926Z</time>
      </trkpt>
      <trkpt lat="47.15381" lon="6.49536">
        <ele>742.6</ele>
        <time>2023-01-15T17:46:04.197Z</time>
      </trkpt>
      <trkpt lat="47.1539" lon="6.49518">
        <ele>741.6</ele>
        <time>2023-01-15T17:46:06.294Z</time>
      </trkpt>
      <trkpt lat="47.15394" lon="6.49508">
        <ele>740.9</ele>
        <time>2023-01-15T17:46:07.447Z</time>
      </trkpt>
      <trkpt lat="47.15413" lon="6.49469">
        <ele>739.2</ele>
        <time>2023-01-15T17:46:11.673Z</time>
      </trkpt>
      <trkpt lat="47.15463" lon="6.49382">
        <ele>735.6</ele>
        <time>2023-01-15T17:46:21.915Z</time>
      </trkpt>
      <trkpt lat="47.15468" lon="6.49374">
        <ele>735.2</ele>
        <time>2023-01-15T17:46:22.890Z</time>
      </trkpt>
      <trkpt lat="47.15509" lon="6.49334">
        <ele>733.7</ele>
        <time>2023-01-15T17:46:29.279Z</time>
      </trkpt>
      <trkpt lat="47.1555" lon="6.49281">
        <ele>730.3</ele>
        <time>2023-01-15T17:46:36.623Z</time>
      </trkpt>
      <trkpt lat="47.15559" lon="6.49255">
        <ele>729</ele>
        <time>2023-01-15T17:46:39.306Z</time>
      </trkpt>
      <trkpt lat="47.1558" lon="6.49188">
        <ele>725.9</ele>
        <time>2023-01-15T17:46:45.996Z</time>
      </trkpt>
      <trkpt lat="47.1562" lon="6.49065">
        <ele>720.9</ele>
        <time>2023-01-15T17:46:58.106Z</time>
      </trkpt>
      <trkpt lat="47.15623" lon="6.49057">
        <ele>720.6</ele>
        <time>2023-01-15T17:46:58.848Z</time>
      </trkpt>
      <trkpt lat="47.15648" lon="6.48995">
        <ele>718.5</ele>
        <time>2023-01-15T17:47:05.087Z</time>
      </trkpt>
      <trkpt lat="47.15686" lon="6.48905">
        <ele>712</ele>
        <time>2023-01-15T17:47:14.046Z</time>
      </trkpt>
      <trkpt lat="47.15692" lon="6.48867">
        <ele>709.4</ele>
        <time>2023-01-15T17:47:17.339Z</time>
      </trkpt>
      <trkpt lat="47.15701" lon="6.48752">
        <ele>700.7</ele>
        <time>2023-01-15T17:47:27.247Z</time>
      </trkpt>
      <trkpt lat="47.15699" lon="6.48713">
        <ele>697.8</ele>
        <time>2023-01-15T17:47:30.550Z</time>
      </trkpt>
      <trkpt lat="47.15673" lon="6.48528">
        <ele>689.2</ele>
        <time>2023-01-15T17:47:47.148Z</time>
      </trkpt>
      <trkpt lat="47.15671" lon="6.48511">
        <ele>689.2</ele>
        <time>2023-01-15T17:47:48.560Z</time>
      </trkpt>
      <trkpt lat="47.15673" lon="6.48528">
        <ele>689.2</ele>
        <time>2023-01-15T17:47:50.253Z</time>
      </trkpt>
      <trkpt lat="47.15699" lon="6.48493">
        <ele>690.7</ele>
        <time>2023-01-15T17:47:55.530Z</time>
      </trkpt>
      <trkpt lat="47.15721" lon="6.48517">
        <ele>690.7</ele>
        <time>2023-01-15T17:47:59.598Z</time>
      </trkpt>
      <trkpt lat="47.1575" lon="6.48586">
        <ele>687.8</ele>
        <time>2023-01-15T17:48:08.319Z</time>
      </trkpt>
      <trkpt lat="47.15783" lon="6.4864">
        <ele>686.4</ele>
        <time>2023-01-15T17:48:16.069Z</time>
      </trkpt>
      <trkpt lat="47.1582" lon="6.48676">
        <ele>685.7</ele>
        <time>2023-01-15T17:48:23.399Z</time>
      </trkpt>
      <trkpt lat="47.15827" lon="6.48684">
        <ele>685.6</ele>
        <time>2023-01-15T17:48:24.916Z</time>
      </trkpt>
      <trkpt lat="47.15854" lon="6.48712">
        <ele>685.7</ele>
        <time>2023-01-15T17:48:30.210Z</time>
      </trkpt>
      <trkpt lat="47.1588" lon="6.48724">
        <ele>684.9</ele>
        <time>2023-01-15T17:48:34.657Z</time>
      </trkpt>
      <trkpt lat="47.15982" lon="6.48737">
        <ele>680.8</ele>
        <time>2023-01-15T17:48:51.307Z</time>
      </trkpt>
      <trkpt lat="47.16042" lon="6.48758">
        <ele>679.2</ele>
        <time>2023-01-15T17:49:02.817Z</time>
      </trkpt>
      <trkpt lat="47.16106" lon="6.48808">
        <ele>677.4</ele>
        <time>2023-01-15T17:49:18.901Z</time>
      </trkpt>
      <trkpt lat="47.16122" lon="6.48823">
        <ele>677.7</ele>
        <time>2023-01-15T17:49:23.367Z</time>
      </trkpt>
      <trkpt lat="47.1614" lon="6.48858">
        <ele>677.5</ele>
        <time>2023-01-15T17:49:31.007Z</time>
      </trkpt>
      <trkpt lat="47.16151" lon="6.4892">
        <ele>675.1</ele>
        <time>2023-01-15T17:49:42.528Z</time>
      </trkpt>
      <trkpt lat="47.16139" lon="6.48972">
        <ele>681.1</ele>
        <time>2023-01-15T17:49:52.906Z</time>
      </trkpt>
      <trkpt lat="47.16125" lon="6.49055">
        <ele>680.5</ele>
        <time>2023-01-15T17:50:09.192Z</time>
      </trkpt>
      <trkpt lat="47.16095" lon="6.49208">
        <ele>669.9</ele>
        <time>2023-01-15T17:50:37.183Z</time>
      </trkpt>
      <trkpt lat="47.16111" lon="6.49252">
        <ele>662.5</ele>
        <time>2023-01-15T17:50:44.979Z</time>
      </trkpt>
      <trkpt lat="47.16144" lon="6.49287">
        <ele>663.6</ele>
        <time>2023-01-15T17:50:53.517Z</time>
      </trkpt>
      <trkpt lat="47.16164" lon="6.49339">
        <ele>666</ele>
        <time>2023-01-15T17:51:01.033Z</time>
      </trkpt>
      <trkpt lat="47.16191" lon="6.49362">
        <ele>663.5</ele>
        <time>2023-01-15T17:51:06.388Z</time>
      </trkpt>
      <trkpt lat="47.16247" lon="6.49362">
        <ele>656.5</ele>
        <time>2023-01-15T17:51:15.430Z</time>
      </trkpt>
      <trkpt lat="47.16302" lon="6.49387">
        <ele>657</ele>
        <time>2023-01-15T17:51:24.141Z</time>
      </trkpt>
      <trkpt lat="47.16354" lon="6.49403">
        <ele>654.1</ele>
        <time>2023-01-15T17:51:31.308Z</time>
      </trkpt>
      <trkpt lat="47.1643" lon="6.49434">
        <ele>651.8</ele>
        <time>2023-01-15T17:51:42.040Z</time>
      </trkpt>
      <trkpt lat="47.16442" lon="6.49439">
        <ele>652</ele>
        <time>2023-01-15T17:51:44.737Z</time>
      </trkpt>
      <trkpt lat="47.16455" lon="6.4944">
        <ele>651.7</ele>
        <time>2023-01-15T17:51:47.871Z</time>
      </trkpt>
      <trkpt lat="47.16475" lon="6.4943">
        <ele>648.3</ele>
        <time>2023-01-15T17:51:52.741Z</time>
      </trkpt>
      <trkpt lat="47.16477" lon="6.49416">
        <ele>644.9</ele>
        <time>2023-01-15T17:51:54.833Z</time>
      </trkpt>
      <trkpt lat="47.16473" lon="6.49407">
        <ele>643.6</ele>
        <time>2023-01-15T17:51:56.607Z</time>
      </trkpt>
      <trkpt lat="47.1645" lon="6.49394">
        <ele>643.3</ele>
        <time>2023-01-15T17:52:02.190Z</time>
      </trkpt>
      <trkpt lat="47.16436" lon="6.4939">
        <ele>643.7</ele>
        <time>2023-01-15T17:52:05.299Z</time>
      </trkpt>
      <trkpt lat="47.16423" lon="6.49393">
        <ele>645.1</ele>
        <time>2023-01-15T17:52:08.166Z</time>
      </trkpt>
      <trkpt lat="47.16379" lon="6.49366">
        <ele>643.9</ele>
        <time>2023-01-15T17:52:18.359Z</time>
      </trkpt>
      <trkpt lat="47.16362" lon="6.4936">
        <ele>644.4</ele>
        <time>2023-01-15T17:52:22.350Z</time>
      </trkpt>
      <trkpt lat="47.16338" lon="6.49332">
        <ele>638.2</ele>
        <time>2023-01-15T17:52:29.043Z</time>
      </trkpt>
      <trkpt lat="47.16322" lon="6.49323">
        <ele>638.3</ele>
        <time>2023-01-15T17:52:32.818Z</time>
      </trkpt>
      <trkpt lat="47.16312" lon="6.49313">
        <ele>637.2</ele>
        <time>2023-01-15T17:52:35.738Z</time>
      </trkpt>
      <trkpt lat="47.16291" lon="6.49285">
        <ele>631.2</ele>
        <time>2023-01-15T17:52:42.183Z</time>
      </trkpt>
      <trkpt lat="47.16258" lon="6.4926">
        <ele>627.9</ele>
        <time>2023-01-15T17:52:50.815Z</time>
      </trkpt>
      <trkpt lat="47.16249" lon="6.4924">
        <ele>625.1</ele>
        <time>2023-01-15T17:52:54.701Z</time>
      </trkpt>
      <trkpt lat="47.16246" lon="6.49211">
        <ele>623.6</ele>
        <time>2023-01-15T17:52:59.368Z</time>
      </trkpt>
      <trkpt lat="47.16241" lon="6.4919">
        <ele>624.1</ele>
        <time>2023-01-15T17:53:03.235Z</time>
      </trkpt>
      <trkpt lat="47.16238" lon="6.49144">
        <ele>625.8</ele>
        <time>2023-01-15T17:53:11.069Z</time>
      </trkpt>
      <trkpt lat="47.16233" lon="6.49111">
        <ele>627.8</ele>
        <time>2023-01-15T17:53:16.704Z</time>
      </trkpt>
      <trkpt lat="47.16247" lon="6.49117">
        <ele>628.2</ele>
        <time>2023-01-15T17:53:20.345Z</time>
      </trkpt>
      <trkpt lat="47.1627" lon="6.49146">
        <ele>629.7</ele>
        <time>2023-01-15T17:53:28.271Z</time>
      </trkpt>
      <trkpt lat="47.16318" lon="6.49157">
        <ele>638.4</ele>
        <time>2023-01-15T17:53:41.177Z</time>
      </trkpt>
      <trkpt lat="47.16351" lon="6.49185">
        <ele>635.4</ele>
        <time>2023-01-15T17:53:51.201Z</time>
      </trkpt>
      <trkpt lat="47.16387" lon="6.49204">
        <ele>633.9</ele>
        <time>2023-01-15T17:54:01.335Z</time>
      </trkpt>
      <trkpt lat="47.16439" lon="6.49221">
        <ele>632.2</ele>
        <time>2023-01-15T17:54:15.252Z</time>
      </trkpt>
      <trkpt lat="47.16474" lon="6.49227">
        <ele>631.3</ele>
        <time>2023-01-15T17:54:24.284Z</time>
      </trkpt>
      <trkpt lat="47.16512" lon="6.49224">
        <ele>631.4</ele>
        <time>2023-01-15T17:54:34.209Z</time>
      </trkpt>
      <trkpt lat="47.16538" lon="6.49215">
        <ele>632.6</ele>
        <time>2023-01-15T17:54:41.263Z</time>
      </trkpt>
      <trkpt lat="47.16577" lon="6.4919">
        <ele>633.5</ele>
        <time>2023-01-15T17:54:54.099Z</time>
      </trkpt>
      <trkpt lat="47.16643" lon="6.49091">
        <ele>643.1</ele>
        <time>2023-01-15T17:55:22.497Z</time>
      </trkpt>
      <trkpt lat="47.16697" lon="6.4903">
        <ele>640.4</ele>
        <time>2023-01-15T17:55:42.764Z</time>
      </trkpt>
      <trkpt lat="47.1673" lon="6.49">
        <ele>634.6</ele>
        <time>2023-01-15T17:55:53.280Z</time>
      </trkpt>
      <trkpt lat="47.16782" lon="6.48917">
        <ele>631.8</ele>
        <time>2023-01-15T17:56:11.772Z</time>
      </trkpt>
      <trkpt lat="47.16811" lon="6.4886">
        <ele>627.9</ele>
        <time>2023-01-15T17:56:22.768Z</time>
      </trkpt>
      <trkpt lat="47.16826" lon="6.48838">
        <ele>627.6</ele>
        <time>2023-01-15T17:56:27.436Z</time>
      </trkpt>
      <trkpt lat="47.1685" lon="6.48812">
        <ele>629</ele>
        <time>2023-01-15T17:56:34.006Z</time>
      </trkpt>
      <trkpt lat="47.1687" lon="6.48815">
        <ele>625.8</ele>
        <time>2023-01-15T17:56:38.565Z</time>
      </trkpt>
      <trkpt lat="47.16921" lon="6.48836">
        <ele>620.6</ele>
        <time>2023-01-15T17:56:50.355Z</time>
      </trkpt>
      <trkpt lat="47.16964" lon="6.48843">
        <ele>622.3</ele>
        <time>2023-01-15T17:57:00.344Z</time>
      </trkpt>
      <trkpt lat="47.16996" lon="6.48861">
        <ele>618.5</ele>
        <time>2023-01-15T17:57:08.812Z</time>
      </trkpt>
      <trkpt lat="47.17047" lon="6.48881">
        <ele>618.1</ele>
        <time>2023-01-15T17:57:23.318Z</time>
      </trkpt>
      <trkpt lat="47.17083" lon="6.48892">
        <ele>619.1</ele>
        <time>2023-01-15T17:57:33.734Z</time>
      </trkpt>
      <trkpt lat="47.17113" lon="6.48892">
        <ele>623.8</ele>
        <time>2023-01-15T17:57:42.397Z</time>
      </trkpt>
      <trkpt lat="47.17131" lon="6.48886">
        <ele>627.9</ele>
        <time>2023-01-15T17:57:47.874Z</time>
      </trkpt>
      <trkpt lat="47.17155" lon="6.48884">
        <ele>629.5</ele>
        <time>2023-01-15T17:57:54.947Z</time>
      </trkpt>
      <trkpt lat="47.17197" lon="6.48861">
        <ele>634.6</ele>
        <time>2023-01-15T17:58:08.509Z</time>
      </trkpt>
      <trkpt lat="47.17212" lon="6.48855">
        <ele>632.8</ele>
        <time>2023-01-15T17:58:13.063Z</time>
      </trkpt>
      <trkpt lat="47.17231" lon="6.48855">
        <ele>629.3</ele>
        <time>2023-01-15T17:58:18.945Z</time>
      </trkpt>
      <trkpt lat="47.17259" lon="6.48844">
        <ele>631.6</ele>
        <time>2023-01-15T17:58:27.464Z</time>
      </trkpt>
      <trkpt lat="47.17278" lon="6.48845">
        <ele>630.8</ele>
        <time>2023-01-15T17:58:33.156Z</time>
      </trkpt>
      <trkpt lat="47.1729" lon="6.48852">
        <ele>629.4</ele>
        <time>2023-01-15T17:58:36.994Z</time>
      </trkpt>
      <trkpt lat="47.17306" lon="6.48853">
        <ele>631.1</ele>
        <time>2023-01-15T17:58:41.964Z</time>
      </trkpt>
      <trkpt lat="47.17319" lon="6.48867">
        <ele>626.4</ele>
        <time>2023-01-15T17:58:46.688Z</time>
      </trkpt>
      <trkpt lat="47.17354" lon="6.48878">
        <ele>623.4</ele>
        <time>2023-01-15T17:58:57.702Z</time>
      </trkpt>
      <trkpt lat="47.17379" lon="6.4887">
        <ele>622.7</ele>
        <time>2023-01-15T17:59:05.549Z</time>
      </trkpt>
      <trkpt lat="47.17392" lon="6.48862">
        <ele>622.2</ele>
        <time>2023-01-15T17:59:09.759Z</time>
      </trkpt>
      <trkpt lat="47.17402" lon="6.48856">
        <ele>620.4</ele>
        <time>2023-01-15T17:59:12.189Z</time>
      </trkpt>
      <trkpt lat="47.17412" lon="6.48843">
        <ele>620.6</ele>
        <time>2023-01-15T17:59:15.089Z</time>
      </trkpt>
      <trkpt lat="47.17439" lon="6.48822">
        <ele>613.2</ele>
        <time>2023-01-15T17:59:22.115Z</time>
      </trkpt>
      <trkpt lat="47.17461" lon="6.48798">
        <ele>606.7</ele>
        <time>2023-01-15T17:59:29.163Z</time>
      </trkpt>
      <trkpt lat="47.17475" lon="6.48775">
        <ele>601.4</ele>
        <time>2023-01-15T17:59:34.169Z</time>
      </trkpt>
      <trkpt lat="47.17487" lon="6.48727">
        <ele>601.2</ele>
        <time>2023-01-15T17:59:41.736Z</time>
      </trkpt>
      <trkpt lat="47.17492" lon="6.48723">
        <ele>599.1</ele>
        <time>2023-01-15T17:59:43.493Z</time>
      </trkpt>
      <trkpt lat="47.17497" lon="6.48723">
        <ele>596.4</ele>
        <time>2023-01-15T17:59:44.634Z</time>
      </trkpt>
      <trkpt lat="47.17507" lon="6.48738">
        <ele>592.8</ele>
        <time>2023-01-15T17:59:47.355Z</time>
      </trkpt>
      <trkpt lat="47.17512" lon="6.48759">
        <ele>590.8</ele>
        <time>2023-01-15T17:59:51.993Z</time>
      </trkpt>
      <trkpt lat="47.17515" lon="6.4885">
        <ele>587.4</ele>
        <time>2023-01-15T18:00:04.819Z</time>
      </trkpt>
      <trkpt lat="47.17517" lon="6.48873">
        <ele>586.7</ele>
        <time>2023-01-15T18:00:08.926Z</time>
      </trkpt>
      <trkpt lat="47.17521" lon="6.48885">
        <ele>586.6</ele>
        <time>2023-01-15T18:00:10.628Z</time>
      </trkpt>
      <trkpt lat="47.17526" lon="6.48891">
        <ele>586.9</ele>
        <time>2023-01-15T18:00:11.953Z</time>
      </trkpt>
      <trkpt lat="47.17533" lon="6.48913">
        <ele>588.5</ele>
        <time>2023-01-15T18:00:16.597Z</time>
      </trkpt>
      <trkpt lat="47.17532" lon="6.48969">
        <ele>589.4</ele>
        <time>2023-01-15T18:00:24.584Z</time>
      </trkpt>
      <trkpt lat="47.17526" lon="6.49014">
        <ele>590.6</ele>
        <time>2023-01-15T18:00:32.201Z</time>
      </trkpt>
      <trkpt lat="47.17526" lon="6.49048">
        <ele>591.6</ele>
        <time>2023-01-15T18:00:37.371Z</time>
      </trkpt>
      <trkpt lat="47.1753" lon="6.49065">
        <ele>592.3</ele>
        <time>2023-01-15T18:00:41.144Z</time>
      </trkpt>
      <trkpt lat="47.17542" lon="6.49098">
        <ele>592.9</ele>
        <time>2023-01-15T18:00:47.112Z</time>
      </trkpt>
      <trkpt lat="47.17563" lon="6.49129">
        <ele>594.9</ele>
        <time>2023-01-15T18:00:56.334Z</time>
      </trkpt>
      <trkpt lat="47.17566" lon="6.49143">
        <ele>594.5</ele>
        <time>2023-01-15T18:00:59.651Z</time>
      </trkpt>
      <trkpt lat="47.1756" lon="6.49187">
        <ele>589.8</ele>
        <time>2023-01-15T18:01:09.451Z</time>
      </trkpt>
      <trkpt lat="47.1755" lon="6.49227">
        <ele>585.4</ele>
        <time>2023-01-15T18:01:19.650Z</time>
      </trkpt>
      <trkpt lat="47.17549" lon="6.49273">
        <ele>583.3</ele>
        <time>2023-01-15T18:01:30.248Z</time>
      </trkpt>
      <trkpt lat="47.17533" lon="6.49282">
        <ele>578.3</ele>
        <time>2023-01-15T18:01:36.383Z</time>
      </trkpt>
      <trkpt lat="47.17517" lon="6.49283">
        <ele>576.5</ele>
        <time>2023-01-15T18:01:41.554Z</time>
      </trkpt>
      <trkpt lat="47.17501" lon="6.4929">
        <ele>576</ele>
        <time>2023-01-15T18:01:48.439Z</time>
      </trkpt>
      <trkpt lat="47.17485" lon="6.49328">
        <ele>576.9</ele>
        <time>2023-01-15T18:01:59.313Z</time>
      </trkpt>
      <trkpt lat="47.1747" lon="6.49348">
        <ele>579.5</ele>
        <time>2023-01-15T18:02:05.822Z</time>
      </trkpt>
      <trkpt lat="47.17459" lon="6.49357">
        <ele>583</ele>
        <time>2023-01-15T18:02:11.926Z</time>
      </trkpt>
      <trkpt lat="47.1748" lon="6.49398">
        <ele>580.6</ele>
        <time>2023-01-15T18:02:24.526Z</time>
      </trkpt>
      <trkpt lat="47.17487" lon="6.49417">
        <ele>579.3</ele>
        <time>2023-01-15T18:02:29.491Z</time>
      </trkpt>
      <trkpt lat="47.17503" lon="6.49497">
        <ele>578.6</ele>
        <time>2023-01-15T18:02:48.854Z</time>
      </trkpt>
      <trkpt lat="47.17502" lon="6.49529">
        <ele>579.7</ele>
        <time>2023-01-15T18:02:55.440Z</time>
      </trkpt>
      <trkpt lat="47.17495" lon="6.49603">
        <ele>581.8</ele>
        <time>2023-01-15T18:03:10.989Z</time>
      </trkpt>
      <trkpt lat="47.17505" lon="6.49678">
        <ele>580.5</ele>
        <time>2023-01-15T18:03:26.401Z</time>
      </trkpt>
      <trkpt lat="47.17514" lon="6.4971">
        <ele>580.2</ele>
        <time>2023-01-15T18:03:33.094Z</time>
      </trkpt>
      <trkpt lat="47.1752" lon="6.49757">
        <ele>581</ele>
        <time>2023-01-15T18:03:41.841Z</time>
      </trkpt>
      <trkpt lat="47.17524" lon="6.49814">
        <ele>580</ele>
        <time>2023-01-15T18:03:51.879Z</time>
      </trkpt>
      <trkpt lat="47.17522" lon="6.49887">
        <ele>579.6</ele>
        <time>2023-01-15T18:04:04.269Z</time>
      </trkpt>
      <trkpt lat="47.17526" lon="6.49996">
        <ele>577.8</ele>
        <time>2023-01-15T18:04:22.279Z</time>
      </trkpt>
      <trkpt lat="47.17521" lon="6.50102">
        <ele>576.1</ele>
        <time>2023-01-15T18:04:40.105Z</time>
      </trkpt>
      <trkpt lat="47.17518" lon="6.50122">
        <ele>575.3</ele>
        <time>2023-01-15T18:04:43.624Z</time>
      </trkpt>
      <trkpt lat="47.17498" lon="6.50164">
        <ele>574.8</ele>
        <time>2023-01-15T18:04:52.387Z</time>
      </trkpt>
      <trkpt lat="47.17502" lon="6.50198">
        <ele>572.1</ele>
        <time>2023-01-15T18:04:58.274Z</time>
      </trkpt>
      <trkpt lat="47.17499" lon="6.50216">
        <ele>571.3</ele>
        <time>2023-01-15T18:05:01.703Z</time>
      </trkpt>
      <trkpt lat="47.17491" lon="6.50232">
        <ele>572.9</ele>
        <time>2023-01-15T18:05:05.328Z</time>
      </trkpt>
      <trkpt lat="47.17426" lon="6.50248">
        <ele>574.3</ele>
        <time>2023-01-15T18:05:24.695Z</time>
      </trkpt>
      <trkpt lat="47.17346" lon="6.50253">
        <ele>574.7</ele>
        <time>2023-01-15T18:05:49.411Z</time>
      </trkpt>
      <trkpt lat="47.17295" lon="6.5027">
        <ele>579.9</ele>
        <time>2023-01-15T18:06:05.373Z</time>
      </trkpt>
      <trkpt lat="47.17283" lon="6.50281">
        <ele>585</ele>
        <time>2023-01-15T18:06:10.135Z</time>
      </trkpt>
      <trkpt lat="47.17277" lon="6.50296">
        <ele>587.9</ele>
        <time>2023-01-15T18:06:13.542Z</time>
      </trkpt>
      <trkpt lat="47.17263" lon="6.50365">
        <ele>592.2</ele>
        <time>2023-01-15T18:06:28.868Z</time>
      </trkpt>
      <trkpt lat="47.17262" lon="6.50427">
        <ele>587.1</ele>
        <time>2023-01-15T18:06:42.358Z</time>
      </trkpt>
      <trkpt lat="47.17258" lon="6.50468">
        <ele>588</ele>
        <time>2023-01-15T18:06:51.099Z</time>
      </trkpt>
      <trkpt lat="47.17242" lon="6.50544">
        <ele>590.3</ele>
        <time>2023-01-15T18:07:08.125Z</time>
      </trkpt>
      <trkpt lat="47.17227" lon="6.50593">
        <ele>596.7</ele>
        <time>2023-01-15T18:07:19.674Z</time>
      </trkpt>
      <trkpt lat="47.1722" lon="6.50638">
        <ele>595.8</ele>
        <time>2023-01-15T18:07:29.532Z</time>
      </trkpt>
      <trkpt lat="47.17214" lon="6.5066">
        <ele>593</ele>
        <time>2023-01-15T18:07:34.677Z</time>
      </trkpt>
      <trkpt lat="47.17155" lon="6.50741">
        <ele>591.5</ele>
        <time>2023-01-15T18:07:59.242Z</time>
      </trkpt>
      <trkpt lat="47.17144" lon="6.50773">
        <ele>588.5</ele>
        <time>2023-01-15T18:08:06.848Z</time>
      </trkpt>
      <trkpt lat="47.17184" lon="6.50738">
        <ele>586.2</ele>
        <time>2023-01-15T18:08:20.833Z</time>
      </trkpt>
      <trkpt lat="47.172" lon="6.50734">
        <ele>583.9</ele>
        <time>2023-01-15T18:08:25.710Z</time>
      </trkpt>
      <trkpt lat="47.17269" lon="6.50747">
        <ele>584.5</ele>
        <time>2023-01-15T18:08:46.469Z</time>
      </trkpt>
      <trkpt lat="47.17319" lon="6.50767">
        <ele>583.5</ele>
        <time>2023-01-15T18:09:01.533Z</time>
      </trkpt>
      <trkpt lat="47.17468" lon="6.50973">
        <ele>588.8</ele>
        <time>2023-01-15T18:10:03.563Z</time>
      </trkpt>
      <trkpt lat="47.17502" lon="6.51028">
        <ele>581.4</ele>
        <time>2023-01-15T18:10:18.497Z</time>
      </trkpt>
      <trkpt lat="47.17578" lon="6.51068">
        <ele>582.4</ele>
        <time>2023-01-15T18:10:41.796Z</time>
      </trkpt>
      <trkpt lat="47.17628" lon="6.51085">
        <ele>578.4</ele>
        <time>2023-01-15T18:10:56.581Z</time>
      </trkpt>
      <trkpt lat="47.17659" lon="6.51103">
        <ele>574.8</ele>
        <time>2023-01-15T18:11:05.810Z</time>
      </trkpt>
      <trkpt lat="47.17678" lon="6.51125">
        <ele>575.2</ele>
        <time>2023-01-15T18:11:12.605Z</time>
      </trkpt>
      <trkpt lat="47.17699" lon="6.51159">
        <ele>576.8</ele>
        <time>2023-01-15T18:11:21.520Z</time>
      </trkpt>
      <trkpt lat="47.17751" lon="6.51272">
        <ele>572.8</ele>
        <time>2023-01-15T18:11:49.288Z</time>
      </trkpt>
      <trkpt lat="47.17771" lon="6.51325">
        <ele>566.6</ele>
        <time>2023-01-15T18:12:01.884Z</time>
      </trkpt>
      <trkpt lat="47.17799" lon="6.51446">
        <ele>574.8</ele>
        <time>2023-01-15T18:12:28.582Z</time>
      </trkpt>
      <trkpt lat="47.17842" lon="6.51557">
        <ele>571</ele>
        <time>2023-01-15T18:12:55.360Z</time>
      </trkpt>
      <trkpt lat="47.17863" lon="6.51589">
        <ele>569</ele>
        <time>2023-01-15T18:13:04.676Z</time>
      </trkpt>
      <trkpt lat="47.17881" lon="6.51599">
        <ele>567.7</ele>
        <time>2023-01-15T18:13:10.554Z</time>
      </trkpt>
      <trkpt lat="47.17903" lon="6.51619">
        <ele>569.5</ele>
        <time>2023-01-15T18:13:18.179Z</time>
      </trkpt>
      <trkpt lat="47.17927" lon="6.51651">
        <ele>571.9</ele>
        <time>2023-01-15T18:13:28.212Z</time>
      </trkpt>
      <trkpt lat="47.17952" lon="6.51691">
        <ele>572.5</ele>
        <time>2023-01-15T18:13:39.155Z</time>
      </trkpt>
      <trkpt lat="47.17996" lon="6.51744">
        <ele>572.6</ele>
        <time>2023-01-15T18:13:56.217Z</time>
      </trkpt>
      <trkpt lat="47.18009" lon="6.51753">
        <ele>572.8</ele>
        <time>2023-01-15T18:14:00.456Z</time>
      </trkpt>
      <trkpt lat="47.18125" lon="6.51799">
        <ele>572.2</ele>
        <time>2023-01-15T18:14:32.128Z</time>
      </trkpt>
      <trkpt lat="47.18157" lon="6.51802">
        <ele>569.7</ele>
        <time>2023-01-15T18:14:39.585Z</time>
      </trkpt>
      <trkpt lat="47.18188" lon="6.51796">
        <ele>566.2</ele>
        <time>2023-01-15T18:14:46.605Z</time>
      </trkpt>
      <trkpt lat="47.18225" lon="6.51784">
        <ele>562.2</ele>
        <time>2023-01-15T18:14:55.027Z</time>
      </trkpt>
      <trkpt lat="47.18308" lon="6.51742">
        <ele>552.4</ele>
        <time>2023-01-15T18:15:13.913Z</time>
      </trkpt>
      <trkpt lat="47.18382" lon="6.51719">
        <ele>552</ele>
        <time>2023-01-15T18:15:30.472Z</time>
      </trkpt>
      <trkpt lat="47.18421" lon="6.517">
        <ele>548.7</ele>
        <time>2023-01-15T18:15:39.738Z</time>
      </trkpt>
      <trkpt lat="47.1845" lon="6.51691">
        <ele>548.6</ele>
        <time>2023-01-15T18:15:46.645Z</time>
      </trkpt>
      <trkpt lat="47.18498" lon="6.51668">
        <ele>545.1</ele>
        <time>2023-01-15T18:15:59.477Z</time>
      </trkpt>
      <trkpt lat="47.18535" lon="6.51658">
        <ele>541.4</ele>
        <time>2023-01-15T18:16:09.990Z</time>
      </trkpt>
      <trkpt lat="47.18564" lon="6.51663">
        <ele>538.8</ele>
        <time>2023-01-15T18:16:18.947Z</time>
      </trkpt>
      <trkpt lat="47.18618" lon="6.51713">
        <ele>539.1</ele>
        <time>2023-01-15T18:16:38.192Z</time>
      </trkpt>
      <trkpt lat="47.18671" lon="6.51804">
        <ele>539</ele>
        <time>2023-01-15T18:17:03.132Z</time>
      </trkpt>
      <trkpt lat="47.18681" lon="6.5183">
        <ele>538.2</ele>
        <time>2023-01-15T18:17:09.523Z</time>
      </trkpt>
      <trkpt lat="47.18684" lon="6.51857">
        <ele>537.1</ele>
        <time>2023-01-15T18:17:15.500Z</time>
      </trkpt>
      <trkpt lat="47.1868" lon="6.5191">
        <ele>538.9</ele>
        <time>2023-01-15T18:17:26.987Z</time>
      </trkpt>
      <trkpt lat="47.1868" lon="6.51935">
        <ele>540.3</ele>
        <time>2023-01-15T18:17:32.377Z</time>
      </trkpt>
      <trkpt lat="47.18702" lon="6.52003">
        <ele>535.6</ele>
        <time>2023-01-15T18:17:48.387Z</time>
      </trkpt>
      <trkpt lat="47.18709" lon="6.52038">
        <ele>536.3</ele>
        <time>2023-01-15T18:17:56.081Z</time>
      </trkpt>
      <trkpt lat="47.18712" lon="6.52089">
        <ele>536.9</ele>
        <time>2023-01-15T18:18:06.846Z</time>
      </trkpt>
      <trkpt lat="47.18712" lon="6.52188">
        <ele>540</ele>
        <time>2023-01-15T18:18:28.008Z</time>
      </trkpt>
      <trkpt lat="47.18706" lon="6.52256">
        <ele>540.5</ele>
        <time>2023-01-15T18:18:42.256Z</time>
      </trkpt>
      <trkpt lat="47.18686" lon="6.52335">
        <ele>545.3</ele>
        <time>2023-01-15T18:18:59.699Z</time>
      </trkpt>
      <trkpt lat="47.18677" lon="6.52576">
        <ele>554.8</ele>
        <time>2023-01-15T18:19:48.964Z</time>
      </trkpt>
      <trkpt lat="47.18681" lon="6.52606">
        <ele>552.1</ele>
        <time>2023-01-15T18:19:55.296Z</time>
      </trkpt>
      <trkpt lat="47.18662" lon="6.52645">
        <ele>553.3</ele>
        <time>2023-01-15T18:20:05.388Z</time>
      </trkpt>
      <trkpt lat="47.18665" lon="6.52688">
        <ele>548.5</ele>
        <time>2023-01-15T18:20:14.631Z</time>
      </trkpt>
      <trkpt lat="47.1868" lon="6.52724">
        <ele>545.7</ele>
        <time>2023-01-15T18:20:23.591Z</time>
      </trkpt>
      <trkpt lat="47.18682" lon="6.52776">
        <ele>548.4</ele>
        <time>2023-01-15T18:20:34.882Z</time>
      </trkpt>
      <trkpt lat="47.1868" lon="6.5284">
        <ele>548.1</ele>
        <time>2023-01-15T18:20:48.726Z</time>
      </trkpt>
      <trkpt lat="47.18684" lon="6.52887">
        <ele>546</ele>
        <time>2023-01-15T18:20:58.658Z</time>
      </trkpt>
      <trkpt lat="47.18727" lon="6.53006">
        <ele>540.3</ele>
        <time>2023-01-15T18:21:26.223Z</time>
      </trkpt>
      <trkpt lat="47.18774" lon="6.53114">
        <ele>542.5</ele>
        <time>2023-01-15T18:21:49.090Z</time>
      </trkpt>
      <trkpt lat="47.18835" lon="6.53233">
        <ele>540.8</ele>
        <time>2023-01-15T18:22:14.857Z</time>
      </trkpt>
      <trkpt lat="47.18853" lon="6.53293">
        <ele>541.5</ele>
        <time>2023-01-15T18:22:27.087Z</time>
      </trkpt>
      <trkpt lat="47.18855" lon="6.53349">
        <ele>541.1</ele>
        <time>2023-01-15T18:22:38.303Z</time>
      </trkpt>
      <trkpt lat="47.18843" lon="6.53416">
        <ele>543.1</ele>
        <time>2023-01-15T18:22:52.481Z</time>
      </trkpt>
      <trkpt lat="47.18847" lon="6.53461">
        <ele>545.9</ele>
        <time>2023-01-15T18:23:01.972Z</time>
      </trkpt>
      <trkpt lat="47.1887" lon="6.53521">
        <ele>543.6</ele>
        <time>2023-01-15T18:23:16.545Z</time>
      </trkpt>
      <trkpt lat="47.18874" lon="6.53566">
        <ele>546.5</ele>
        <time>2023-01-15T18:23:26.164Z</time>
      </trkpt>
      <trkpt lat="47.18869" lon="6.53619">
        <ele>553.9</ele>
        <time>2023-01-15T18:23:37.213Z</time>
      </trkpt>
      <trkpt lat="47.18886" lon="6.53677">
        <ele>541.6</ele>
        <time>2023-01-15T18:23:50.203Z</time>
      </trkpt>
      <trkpt lat="47.18892" lon="6.53767">
        <ele>534.8</ele>
        <time>2023-01-15T18:24:08.458Z</time>
      </trkpt>
      <trkpt lat="47.18909" lon="6.53787">
        <ele>536</ele>
        <time>2023-01-15T18:24:14.923Z</time>
      </trkpt>
      <trkpt lat="47.18938" lon="6.53802">
        <ele>535.3</ele>
        <time>2023-01-15T18:24:23.954Z</time>
      </trkpt>
      <trkpt lat="47.18992" lon="6.53838">
        <ele>532.5</ele>
        <time>2023-01-15T18:24:41.211Z</time>
      </trkpt>
      <trkpt lat="47.19059" lon="6.53889">
        <ele>537.7</ele>
        <time>2023-01-15T18:25:03.741Z</time>
      </trkpt>
      <trkpt lat="47.19141" lon="6.53911">
        <ele>527.2</ele>
        <time>2023-01-15T18:25:28.969Z</time>
      </trkpt>
      <trkpt lat="47.19188" lon="6.5395">
        <ele>533.5</ele>
        <time>2023-01-15T18:25:45.289Z</time>
      </trkpt>
      <trkpt lat="47.19224" lon="6.53999">
        <ele>544.2</ele>
        <time>2023-01-15T18:25:59.886Z</time>
      </trkpt>
      <trkpt lat="47.19253" lon="6.54008">
        <ele>539.7</ele>
        <time>2023-01-15T18:26:08.163Z</time>
      </trkpt>
      <trkpt lat="47.19309" lon="6.54018">
        <ele>530</ele>
        <time>2023-01-15T18:26:23.550Z</time>
      </trkpt>
      <trkpt lat="47.19378" lon="6.54052">
        <ele>528</ele>
        <time>2023-01-15T18:26:43.860Z</time>
      </trkpt>
      <trkpt lat="47.19416" lon="6.54079">
        <ele>528.9</ele>
        <time>2023-01-15T18:26:56.203Z</time>
      </trkpt>
      <trkpt lat="47.19452" lon="6.54147">
        <ele>534.6</ele>
        <time>2023-01-15T18:27:13.836Z</time>
      </trkpt>
      <trkpt lat="47.19475" lon="6.54179">
        <ele>532.1</ele>
        <time>2023-01-15T18:27:23.664Z</time>
      </trkpt>
      <trkpt lat="47.1948" lon="6.54185">
        <ele>532.5</ele>
        <time>2023-01-15T18:27:25.778Z</time>
      </trkpt>
      <trkpt lat="47.19497" lon="6.54227">
        <ele>539.9</ele>
        <time>2023-01-15T18:27:36.005Z</time>
      </trkpt>
      <trkpt lat="47.19549" lon="6.54303">
        <ele>539.8</ele>
        <time>2023-01-15T18:27:59.073Z</time>
      </trkpt>
      <trkpt lat="47.19653" lon="6.5438">
        <ele>530.7</ele>
        <time>2023-01-15T18:28:36.017Z</time>
      </trkpt>
      <trkpt lat="47.19682" lon="6.54409">
        <ele>527.8</ele>
        <time>2023-01-15T18:28:48.452Z</time>
      </trkpt>
      <trkpt lat="47.19707" lon="6.54427">
        <ele>522.7</ele>
        <time>2023-01-15T18:28:58.504Z</time>
      </trkpt>
      <trkpt lat="47.19721" lon="6.54475">
        <ele>521.2</ele>
        <time>2023-01-15T18:29:12.106Z</time>
      </trkpt>
      <trkpt lat="47.19732" lon="6.54505">
        <ele>522.6</ele>
        <time>2023-01-15T18:29:21.063Z</time>
      </trkpt>
      <trkpt lat="47.19726" lon="6.54508">
        <ele>523.4</ele>
        <time>2023-01-15T18:29:23.343Z</time>
      </trkpt>
      <trkpt lat="47.19705" lon="6.54477">
        <ele>532.1</ele>
        <time>2023-01-15T18:29:36.538Z</time>
      </trkpt>
      <trkpt lat="47.19644" lon="6.54423">
        <ele>553</ele>
        <time>2023-01-15T18:30:14.857Z</time>
      </trkpt>
      <trkpt lat="47.19589" lon="6.54405">
        <ele>569.5</ele>
        <time>2023-01-15T18:30:47.065Z</time>
      </trkpt>
      <trkpt lat="47.1954" lon="6.54384">
        <ele>580.1</ele>
        <time>2023-01-15T18:31:12.549Z</time>
      </trkpt>
      <trkpt lat="47.1959" lon="6.54452">
        <ele>585.7</ele>
        <time>2023-01-15T18:31:43.210Z</time>
      </trkpt>
      <trkpt lat="47.19635" lon="6.54544">
        <ele>589.6</ele>
        <time>2023-01-15T18:32:14.959Z</time>
      </trkpt>
      <trkpt lat="47.19642" lon="6.54643">
        <ele>593.8</ele>
        <time>2023-01-15T18:32:36.971Z</time>
      </trkpt>
      <trkpt lat="47.19597" lon="6.54752">
        <ele>585.9</ele>
        <time>2023-01-15T18:33:04.587Z</time>
      </trkpt>
      <trkpt lat="47.19598" lon="6.54776">
        <ele>588</ele>
        <time>2023-01-15T18:33:09.802Z</time>
      </trkpt>
      <trkpt lat="47.1961" lon="6.54795">
        <ele>590.9</ele>
        <time>2023-01-15T18:33:15.440Z</time>
      </trkpt>
      <trkpt lat="47.19687" lon="6.54849">
        <ele>593.7</ele>
        <time>2023-01-15T18:33:42.657Z</time>
      </trkpt>
      <trkpt lat="47.19767" lon="6.54952">
        <ele>605</ele>
        <time>2023-01-15T18:34:16.567Z</time>
      </trkpt>
      <trkpt lat="47.19804" lon="6.55053">
        <ele>617</ele>
        <time>2023-01-15T18:34:41.739Z</time>
      </trkpt>
      <trkpt lat="47.19817" lon="6.5513">
        <ele>614.9</ele>
        <time>2023-01-15T18:34:58.966Z</time>
      </trkpt>
      <trkpt lat="47.19782" lon="6.55323">
        <ele>619.4</ele>
        <time>2023-01-15T18:35:37.626Z</time>
      </trkpt>
      <trkpt lat="47.19749" lon="6.5539">
        <ele>620.4</ele>
        <time>2023-01-15T18:35:50.506Z</time>
      </trkpt>
      <trkpt lat="47.19742" lon="6.55427">
        <ele>616.6</ele>
        <time>2023-01-15T18:35:56.241Z</time>
      </trkpt>
      <trkpt lat="47.1974" lon="6.55439">
        <ele>615.9</ele>
        <time>2023-01-15T18:35:58.099Z</time>
      </trkpt>
      <trkpt lat="47.19753" lon="6.55538">
        <ele>605.8</ele>
        <time>2023-01-15T18:36:12.735Z</time>
      </trkpt>
      <trkpt lat="47.19751" lon="6.55574">
        <ele>603.2</ele>
        <time>2023-01-15T18:36:17.988Z</time>
      </trkpt>
      <trkpt lat="47.1973" lon="6.55675">
        <ele>595.5</ele>
        <time>2023-01-15T18:36:33.459Z</time>
      </trkpt>
      <trkpt lat="47.19698" lon="6.55696">
        <ele>594.1</ele>
        <time>2023-01-15T18:36:41.257Z</time>
      </trkpt>
      <trkpt lat="47.19649" lon="6.55688">
        <ele>598.6</ele>
        <time>2023-01-15T18:36:52.438Z</time>
      </trkpt>
      <trkpt lat="47.19553" lon="6.55662">
        <ele>596.9</ele>
        <time>2023-01-15T18:37:20.729Z</time>
      </trkpt>
      <trkpt lat="47.19521" lon="6.55675">
        <ele>587.9</ele>
        <time>2023-01-15T18:37:34.391Z</time>
      </trkpt>
      <trkpt lat="47.19494" lon="6.55669">
        <ele>588.9</ele>
        <time>2023-01-15T18:37:42.628Z</time>
      </trkpt>
      <trkpt lat="47.19427" lon="6.55663">
        <ele>587.9</ele>
        <time>2023-01-15T18:38:07.343Z</time>
      </trkpt>
      <trkpt lat="47.19394" lon="6.55648">
        <ele>592.1</ele>
        <time>2023-01-15T18:38:29.431Z</time>
      </trkpt>
      <trkpt lat="47.19379" lon="6.55642">
        <ele>594</ele>
        <time>2023-01-15T18:38:39.351Z</time>
      </trkpt>
      <trkpt lat="47.19333" lon="6.55642">
        <ele>595.4</ele>
        <time>2023-01-15T18:39:07.755Z</time>
      </trkpt>
      <trkpt lat="47.19309" lon="6.55638">
        <ele>599.1</ele>
        <time>2023-01-15T18:39:24.964Z</time>
      </trkpt>
      <trkpt lat="47.19269" lon="6.55669">
        <ele>600.7</ele>
        <time>2023-01-15T18:39:50.335Z</time>
      </trkpt>
      <trkpt lat="47.19255" lon="6.55665">
        <ele>603.3</ele>
        <time>2023-01-15T18:40:00.560Z</time>
      </trkpt>
      <trkpt lat="47.19256" lon="6.55697">
        <ele>611.9</ele>
        <time>2023-01-15T18:40:11.718Z</time>
      </trkpt>
      <trkpt lat="47.19279" lon="6.55708">
        <ele>613.2</ele>
        <time>2023-01-15T18:40:25.581Z</time>
      </trkpt>
      <trkpt lat="47.19308" lon="6.55741">
        <ele>621.5</ele>
        <time>2023-01-15T18:40:43.163Z</time>
      </trkpt>
      <trkpt lat="47.19317" lon="6.55757">
        <ele>625.1</ele>
        <time>2023-01-15T18:40:47.892Z</time>
      </trkpt>
      <trkpt lat="47.19337" lon="6.55794">
        <ele>631.4</ele>
        <time>2023-01-15T18:41:03.383Z</time>
      </trkpt>
      <trkpt lat="47.19364" lon="6.55856">
        <ele>636.2</ele>
        <time>2023-01-15T18:41:22.563Z</time>
      </trkpt>
      <trkpt lat="47.19369" lon="6.55914">
        <ele>639.6</ele>
        <time>2023-01-15T18:41:34.666Z</time>
      </trkpt>
      <trkpt lat="47.194" lon="6.55964">
        <ele>637.2</ele>
        <time>2023-01-15T18:41:48.749Z</time>
      </trkpt>
      <trkpt lat="47.19481" lon="6.56034">
        <ele>636.2</ele>
        <time>2023-01-15T18:42:17.005Z</time>
      </trkpt>
      <trkpt lat="47.19569" lon="6.56086">
        <ele>629.8</ele>
        <time>2023-01-15T18:42:46.173Z</time>
      </trkpt>
      <trkpt lat="47.19592" lon="6.56111">
        <ele>629.3</ele>
        <time>2023-01-15T18:42:55.664Z</time>
      </trkpt>
      <trkpt lat="47.19613" lon="6.56133">
        <ele>626.4</ele>
        <time>2023-01-15T18:43:05.384Z</time>
      </trkpt>
      <trkpt lat="47.19607" lon="6.56222">
        <ele>639.2</ele>
        <time>2023-01-15T18:43:32.250Z</time>
      </trkpt>
      <trkpt lat="47.19587" lon="6.56258">
        <ele>653.4</ele>
        <time>2023-01-15T18:43:48.947Z</time>
      </trkpt>
      <trkpt lat="47.19509" lon="6.56317">
        <ele>684.4</ele>
        <time>2023-01-15T18:44:39.523Z</time>
      </trkpt>
      <trkpt lat="47.19508" lon="6.56356">
        <ele>685.3</ele>
        <time>2023-01-15T18:44:56.886Z</time>
      </trkpt>
      <trkpt lat="47.1949" lon="6.56419">
        <ele>687.3</ele>
        <time>2023-01-15T18:45:30.068Z</time>
      </trkpt>
      <trkpt lat="47.19487" lon="6.56465">
        <ele>682</ele>
        <time>2023-01-15T18:45:51.009Z</time>
      </trkpt>
      <trkpt lat="47.19466" lon="6.56514">
        <ele>688.7</ele>
        <time>2023-01-15T18:46:16.917Z</time>
      </trkpt>
      <trkpt lat="47.19441" lon="6.56553">
        <ele>701</ele>
        <time>2023-01-15T18:46:40.910Z</time>
      </trkpt>
      <trkpt lat="47.1944" lon="6.56618">
        <ele>706.2</ele>
        <time>2023-01-15T18:47:09.926Z</time>
      </trkpt>
      <trkpt lat="47.19427" lon="6.56684">
        <ele>714.5</ele>
        <time>2023-01-15T18:47:38.115Z</time>
      </trkpt>
      <trkpt lat="47.19379" lon="6.56756">
        <ele>731.2</ele>
        <time>2023-01-15T18:48:17.580Z</time>
      </trkpt>
      <trkpt lat="47.19377" lon="6.56823">
        <ele>731.9</ele>
        <time>2023-01-15T18:48:37.245Z</time>
      </trkpt>
      <trkpt lat="47.19379" lon="6.56861">
        <ele>730.5</ele>
        <time>2023-01-15T18:48:47.286Z</time>
      </trkpt>
      <trkpt lat="47.19364" lon="6.56945">
        <ele>736.1</ele>
        <time>2023-01-15T18:49:08.353Z</time>
      </trkpt>
      <trkpt lat="47.19374" lon="6.57011">
        <ele>724</ele>
        <time>2023-01-15T18:49:23.680Z</time>
      </trkpt>
      <trkpt lat="47.19358" lon="6.57149">
        <ele>718</ele>
        <time>2023-01-15T18:49:53.411Z</time>
      </trkpt>
      <trkpt lat="47.19344" lon="6.57169">
        <ele>723.7</ele>
        <time>2023-01-15T18:49:59.986Z</time>
      </trkpt>
      <trkpt lat="47.19331" lon="6.57222">
        <ele>727.9</ele>
        <time>2023-01-15T18:50:12.326Z</time>
      </trkpt>
      <trkpt lat="47.19302" lon="6.57328">
        <ele>736.8</ele>
        <time>2023-01-15T18:50:42.209Z</time>
      </trkpt>
      <trkpt lat="47.19288" lon="6.57402">
        <ele>742.8</ele>
        <time>2023-01-15T18:51:03.915Z</time>
      </trkpt>
      <trkpt lat="47.19287" lon="6.57428">
        <ele>746.1</ele>
        <time>2023-01-15T18:51:11.374Z</time>
      </trkpt>
      <trkpt lat="47.19272" lon="6.57382">
        <ele>748.8</ele>
        <time>2023-01-15T18:51:25.289Z</time>
      </trkpt>
      <trkpt lat="47.19273" lon="6.57315">
        <ele>752.2</ele>
        <time>2023-01-15T18:51:43.564Z</time>
      </trkpt>
      <trkpt lat="47.1928" lon="6.57235">
        <ele>751.8</ele>
        <time>2023-01-15T18:52:05.089Z</time>
      </trkpt>
      <trkpt lat="47.19284" lon="6.57198">
        <ele>754.2</ele>
        <time>2023-01-15T18:52:14.760Z</time>
      </trkpt>
      <trkpt lat="47.19294" lon="6.57144">
        <ele>760.1</ele>
        <time>2023-01-15T18:52:27.330Z</time>
      </trkpt>
      <trkpt lat="47.19319" lon="6.5707">
        <ele>754</ele>
        <time>2023-01-15T18:52:44.754Z</time>
      </trkpt>
      <trkpt lat="47.19311" lon="6.56978">
        <ele>764.2</ele>
        <time>2023-01-15T18:53:02.825Z</time>
      </trkpt>
      <trkpt lat="47.19311" lon="6.56896">
        <ele>760</ele>
        <time>2023-01-15T18:53:17.312Z</time>
      </trkpt>
      <trkpt lat="47.19305" lon="6.56848">
        <ele>755.7</ele>
        <time>2023-01-15T18:53:26.059Z</time>
      </trkpt>
      <trkpt lat="47.19253" lon="6.5673">
        <ele>758.1</ele>
        <time>2023-01-15T18:53:51.669Z</time>
      </trkpt>
      <trkpt lat="47.1915" lon="6.56581">
        <ele>761.9</ele>
        <time>2023-01-15T18:54:34.784Z</time>
      </trkpt>
      <trkpt lat="47.19142" lon="6.56561">
        <ele>762.5</ele>
        <time>2023-01-15T18:54:39.571Z</time>
      </trkpt>
      <trkpt lat="47.19126" lon="6.56466">
        <ele>764</ele>
        <time>2023-01-15T18:55:00.494Z</time>
      </trkpt>
      <trkpt lat="47.19117" lon="6.56443">
        <ele>764.6</ele>
        <time>2023-01-15T18:55:06.033Z</time>
      </trkpt>
      <trkpt lat="47.19033" lon="6.56269">
        <ele>766.7</ele>
        <time>2023-01-15T18:55:54.016Z</time>
      </trkpt>
      <trkpt lat="47.19059" lon="6.56355">
        <ele>769.8</ele>
        <time>2023-01-15T18:56:23.215Z</time>
      </trkpt>
      <trkpt lat="47.19062" lon="6.5638">
        <ele>770.6</ele>
        <time>2023-01-15T18:56:34.661Z</time>
      </trkpt>
      <trkpt lat="47.19064" lon="6.56514">
        <ele>780.3</ele>
        <time>2023-01-15T18:57:20.155Z</time>
      </trkpt>
      <trkpt lat="47.1906" lon="6.56521">
        <ele>781.7</ele>
        <time>2023-01-15T18:57:25.569Z</time>
      </trkpt>
      <trkpt lat="47.19052" lon="6.56595">
        <ele>788.9</ele>
        <time>2023-01-15T18:57:49.747Z</time>
      </trkpt>
      <trkpt lat="47.1904" lon="6.56653">
        <ele>797.3</ele>
        <time>2023-01-15T18:58:13.384Z</time>
      </trkpt>
      <trkpt lat="47.19029" lon="6.56663">
        <ele>802</ele>
        <time>2023-01-15T18:58:21.346Z</time>
      </trkpt>
      <trkpt lat="47.19019" lon="6.5666">
        <ele>806.1</ele>
        <time>2023-01-15T18:58:29.330Z</time>
      </trkpt>
      <trkpt lat="47.18971" lon="6.56576">
        <ele>814.9</ele>
        <time>2023-01-15T18:59:13.724Z</time>
      </trkpt>
      <trkpt lat="47.18915" lon="6.56499">
        <ele>831.6</ele>
        <time>2023-01-15T19:00:01.061Z</time>
      </trkpt>
      <trkpt lat="47.18836" lon="6.56371">
        <ele>838.9</ele>
        <time>2023-01-15T19:01:22.576Z</time>
      </trkpt>
      <trkpt lat="47.18794" lon="6.56323">
        <ele>848.2</ele>
        <time>2023-01-15T19:01:57.461Z</time>
      </trkpt>
      <trkpt lat="47.18781" lon="6.56296">
        <ele>851.4</ele>
        <time>2023-01-15T19:02:11.893Z</time>
      </trkpt>
      <trkpt lat="47.18738" lon="6.56169">
        <ele>861.5</ele>
        <time>2023-01-15T19:03:07.468Z</time>
      </trkpt>
      <trkpt lat="47.18667" lon="6.5603">
        <ele>870.3</ele>
        <time>2023-01-15T19:04:07.367Z</time>
      </trkpt>
      <trkpt lat="47.18626" lon="6.55943">
        <ele>879.1</ele>
        <time>2023-01-15T19:04:40.589Z</time>
      </trkpt>
      <trkpt lat="47.18618" lon="6.55929">
        <ele>880.9</ele>
        <time>2023-01-15T19:04:46.761Z</time>
      </trkpt>
      <trkpt lat="47.18565" lon="6.55842">
        <ele>890.9</ele>
        <time>2023-01-15T19:05:22.989Z</time>
      </trkpt>
      <trkpt lat="47.18483" lon="6.55738">
        <ele>901.6</ele>
        <time>2023-01-15T19:06:08.313Z</time>
      </trkpt>
      <trkpt lat="47.18438" lon="6.55718">
        <ele>908.8</ele>
        <time>2023-01-15T19:06:26.583Z</time>
      </trkpt>
      <trkpt lat="47.18422" lon="6.55721">
        <ele>912.7</ele>
        <time>2023-01-15T19:06:32.738Z</time>
      </trkpt>
      <trkpt lat="47.18418" lon="6.55737">
        <ele>915.3</ele>
        <time>2023-01-15T19:06:37.287Z</time>
      </trkpt>
      <trkpt lat="47.18425" lon="6.55776">
        <ele>918.3</ele>
        <time>2023-01-15T19:06:47.936Z</time>
      </trkpt>
      <trkpt lat="47.18449" lon="6.55873">
        <ele>922.5</ele>
        <time>2023-01-15T19:07:13.793Z</time>
      </trkpt>
      <trkpt lat="47.18458" lon="6.56004">
        <ele>938.3</ele>
        <time>2023-01-15T19:07:43.027Z</time>
      </trkpt>
      <trkpt lat="47.18457" lon="6.56036">
        <ele>938.9</ele>
        <time>2023-01-15T19:07:50.043Z</time>
      </trkpt>
      <trkpt lat="47.18426" lon="6.55926">
        <ele>935</ele>
        <time>2023-01-15T19:08:15.390Z</time>
      </trkpt>
      <trkpt lat="47.18395" lon="6.55847">
        <ele>930.7</ele>
        <time>2023-01-15T19:08:34.200Z</time>
      </trkpt>
      <trkpt lat="47.18306" lon="6.55692">
        <ele>925.7</ele>
        <time>2023-01-15T19:09:11.789Z</time>
      </trkpt>
      <trkpt lat="47.18287" lon="6.55629">
        <ele>921.4</ele>
        <time>2023-01-15T19:09:23.835Z</time>
      </trkpt>
      <trkpt lat="47.18285" lon="6.55503">
        <ele>917.3</ele>
        <time>2023-01-15T19:09:44.664Z</time>
      </trkpt>
      <trkpt lat="47.18249" lon="6.55301">
        <ele>905.8</ele>
        <time>2023-01-15T19:10:18.158Z</time>
      </trkpt>
      <trkpt lat="47.18256" lon="6.55125">
        <ele>894.8</ele>
        <time>2023-01-15T19:10:50.297Z</time>
      </trkpt>
      <trkpt lat="47.1827" lon="6.55109">
        <ele>892.5</ele>
        <time>2023-01-15T19:10:55.164Z</time>
      </trkpt>
      <trkpt lat="47.18251" lon="6.55086">
        <ele>895.8</ele>
        <time>2023-01-15T19:11:03.184Z</time>
      </trkpt>
      <trkpt lat="47.18204" lon="6.55041">
        <ele>902.8</ele>
        <time>2023-01-15T19:11:18.642Z</time>
      </trkpt>
      <trkpt lat="47.18131" lon="6.54998">
        <ele>915.5</ele>
        <time>2023-01-15T19:11:44.794Z</time>
      </trkpt>
      <trkpt lat="47.18079" lon="6.54922">
        <ele>921.1</ele>
        <time>2023-01-15T19:12:13.786Z</time>
      </trkpt>
      <trkpt lat="47.17995" lon="6.54837">
        <ele>931.2</ele>
        <time>2023-01-15T19:12:51.771Z</time>
      </trkpt>
      <trkpt lat="47.17894" lon="6.54705">
        <ele>939.3</ele>
        <time>2023-01-15T19:13:31.410Z</time>
      </trkpt>
      <trkpt lat="47.17841" lon="6.54623">
        <ele>941.4</ele>
        <time>2023-01-15T19:13:50.615Z</time>
      </trkpt>
      <trkpt lat="47.17786" lon="6.54515">
        <ele>940.8</ele>
        <time>2023-01-15T19:14:11.606Z</time>
      </trkpt>
      <trkpt lat="47.17754" lon="6.54475">
        <ele>941.6</ele>
        <time>2023-01-15T19:14:20.719Z</time>
      </trkpt>
      <trkpt lat="47.17699" lon="6.54406">
        <ele>943.2</ele>
        <time>2023-01-15T19:14:37.172Z</time>
      </trkpt>
      <trkpt lat="47.17604" lon="6.54272">
        <ele>940.9</ele>
        <time>2023-01-15T19:15:05.741Z</time>
      </trkpt>
      <trkpt lat="47.17567" lon="6.54229">
        <ele>939.8</ele>
        <time>2023-01-15T19:15:13.809Z</time>
      </trkpt>
      <trkpt lat="47.17504" lon="6.54111">
        <ele>938.6</ele>
        <time>2023-01-15T19:15:28.375Z</time>
      </trkpt>
      <trkpt lat="47.17401" lon="6.53964">
        <ele>935.4</ele>
        <time>2023-01-15T19:15:47.983Z</time>
      </trkpt>
      <trkpt lat="47.17317" lon="6.53829">
        <ele>928.9</ele>
        <time>2023-01-15T19:16:06.445Z</time>
      </trkpt>
      <trkpt lat="47.17233" lon="6.53728">
        <ele>929.5</ele>
        <time>2023-01-15T19:16:29.113Z</time>
      </trkpt>
      <trkpt lat="47.17176" lon="6.53687">
        <ele>932.5</ele>
        <time>2023-01-15T19:16:43.549Z</time>
      </trkpt>
      <trkpt lat="47.17083" lon="6.53637">
        <ele>936.9</ele>
        <time>2023-01-15T19:17:06.304Z</time>
      </trkpt>
      <trkpt lat="47.17024" lon="6.53593">
        <ele>937.3</ele>
        <time>2023-01-15T19:17:20.617Z</time>
      </trkpt>
      <trkpt lat="47.16978" lon="6.53578">
        <ele>939</ele>
        <time>2023-01-15T19:17:29.665Z</time>
      </trkpt>
      <trkpt lat="47.16941" lon="6.53559">
        <ele>940.9</ele>
        <time>2023-01-15T19:17:36.595Z</time>
      </trkpt>
      <trkpt lat="47.16862" lon="6.53487">
        <ele>941.9</ele>
        <time>2023-01-15T19:17:52.293Z</time>
      </trkpt>
      <trkpt lat="47.1682" lon="6.53458">
        <ele>944.4</ele>
        <time>2023-01-15T19:18:00.145Z</time>
      </trkpt>
      <trkpt lat="47.1661" lon="6.53241">
        <ele>945.2</ele>
        <time>2023-01-15T19:18:46.023Z</time>
      </trkpt>
      <trkpt lat="47.1655" lon="6.53201">
        <ele>948.5</ele>
        <time>2023-01-15T19:18:58.038Z</time>
      </trkpt>
      <trkpt lat="47.16532" lon="6.53183">
        <ele>948.8</ele>
        <time>2023-01-15T19:19:01.787Z</time>
      </trkpt>
      <trkpt lat="47.16515" lon="6.53154">
        <ele>947.4</ele>
        <time>2023-01-15T19:19:06.087Z</time>
      </trkpt>
      <trkpt lat="47.16449" lon="6.53059">
        <ele>946</ele>
        <time>2023-01-15T19:19:19.720Z</time>
      </trkpt>
      <trkpt lat="47.16429" lon="6.53018">
        <ele>944.8</ele>
        <time>2023-01-15T19:19:24.376Z</time>
      </trkpt>
      <trkpt lat="47.16358" lon="6.52897">
        <ele>938.8</ele>
        <time>2023-01-15T19:19:38.284Z</time>
      </trkpt>
      <trkpt lat="47.16263" lon="6.52706">
        <ele>923.8</ele>
        <time>2023-01-15T19:19:59.402Z</time>
      </trkpt>
      <trkpt lat="47.16251" lon="6.52679">
        <ele>922.8</ele>
        <time>2023-01-15T19:20:02.984Z</time>
      </trkpt>
      <trkpt lat="47.16236" lon="6.52629">
        <ele>920.3</ele>
        <time>2023-01-15T19:20:10.850Z</time>
      </trkpt>
      <trkpt lat="47.16223" lon="6.52607">
        <ele>919.8</ele>
        <time>2023-01-15T19:20:15.239Z</time>
      </trkpt>
      <trkpt lat="47.16209" lon="6.52608">
        <ele>920.8</ele>
        <time>2023-01-15T19:20:18.574Z</time>
      </trkpt>
      <trkpt lat="47.162" lon="6.52625">
        <ele>922.6</ele>
        <time>2023-01-15T19:20:22.838Z</time>
      </trkpt>
      <trkpt lat="47.16188" lon="6.52635">
        <ele>924.4</ele>
        <time>2023-01-15T19:20:26.137Z</time>
      </trkpt>
      <trkpt lat="47.16166" lon="6.52632">
        <ele>926.4</ele>
        <time>2023-01-15T19:20:32.555Z</time>
      </trkpt>
      <trkpt lat="47.16143" lon="6.52617">
        <ele>928.8</ele>
        <time>2023-01-15T19:20:39.084Z</time>
      </trkpt>
      <trkpt lat="47.16088" lon="6.52546">
        <ele>931.2</ele>
        <time>2023-01-15T19:21:00.405Z</time>
      </trkpt>
      <trkpt lat="47.16072" lon="6.5254">
        <ele>932.8</ele>
        <time>2023-01-15T19:21:05.307Z</time>
      </trkpt>
      <trkpt lat="47.16042" lon="6.52546">
        <ele>937</ele>
        <time>2023-01-15T19:21:12.474Z</time>
      </trkpt>
      <trkpt lat="47.16031" lon="6.52544">
        <ele>938.3</ele>
        <time>2023-01-15T19:21:14.949Z</time>
      </trkpt>
      <trkpt lat="47.16017" lon="6.52531">
        <ele>939.8</ele>
        <time>2023-01-15T19:21:18.651Z</time>
      </trkpt>
      <trkpt lat="47.15971" lon="6.52475">
        <ele>942.1</ele>
        <time>2023-01-15T19:21:30.732Z</time>
      </trkpt>
      <trkpt lat="47.15964" lon="6.52471">
        <ele>942</ele>
        <time>2023-01-15T19:21:32.057Z</time>
      </trkpt>
      <trkpt lat="47.15954" lon="6.52475">
        <ele>942</ele>
        <time>2023-01-15T19:21:34.010Z</time>
      </trkpt>
      <trkpt lat="47.15949" lon="6.52494">
        <ele>942.1</ele>
        <time>2023-01-15T19:21:36.762Z</time>
      </trkpt>
      <trkpt lat="47.15932" lon="6.52653">
        <ele>943.5</ele>
        <time>2023-01-15T19:21:55.318Z</time>
      </trkpt>
      <trkpt lat="47.1593" lon="6.52687">
        <ele>943.4</ele>
        <time>2023-01-15T19:21:58.664Z</time>
      </trkpt>
      <trkpt lat="47.15937" lon="6.52769">
        <ele>943.8</ele>
        <time>2023-01-15T19:22:06.244Z</time>
      </trkpt>
      <trkpt lat="47.15936" lon="6.52794">
        <ele>943.1</ele>
        <time>2023-01-15T19:22:08.346Z</time>
      </trkpt>
      <trkpt lat="47.15933" lon="6.52812">
        <ele>942.1</ele>
        <time>2023-01-15T19:22:09.960Z</time>
      </trkpt>
      <trkpt lat="47.15905" lon="6.52883">
        <ele>937.3</ele>
        <time>2023-01-15T19:22:16.763Z</time>
      </trkpt>
      <trkpt lat="47.15747" lon="6.53099">
        <ele>916.8</ele>
        <time>2023-01-15T19:22:42.041Z</time>
      </trkpt>
      <trkpt lat="47.15729" lon="6.53137">
        <ele>914.6</ele>
        <time>2023-01-15T19:22:45.797Z</time>
      </trkpt>
      <trkpt lat="47.15722" lon="6.5316">
        <ele>912.5</ele>
        <time>2023-01-15T19:22:47.900Z</time>
      </trkpt>
      <trkpt lat="47.15711" lon="6.53173">
        <ele>910.7</ele>
        <time>2023-01-15T19:22:49.677Z</time>
      </trkpt>
      <trkpt lat="47.15706" lon="6.53174">
        <ele>910.3</ele>
        <time>2023-01-15T19:22:50.300Z</time>
      </trkpt>
      <trkpt lat="47.1569" lon="6.53165">
        <ele>909.6</ele>
        <time>2023-01-15T19:22:52.430Z</time>
      </trkpt>
      <trkpt lat="47.15669" lon="6.53136">
        <ele>908.5</ele>
        <time>2023-01-15T19:22:56.067Z</time>
      </trkpt>
      <trkpt lat="47.15657" lon="6.53133">
        <ele>907.5</ele>
        <time>2023-01-15T19:22:57.735Z</time>
      </trkpt>
      <trkpt lat="47.15625" lon="6.53145">
        <ele>904.3</ele>
        <time>2023-01-15T19:23:02.204Z</time>
      </trkpt>
      <trkpt lat="47.15608" lon="6.53211">
        <ele>899.4</ele>
        <time>2023-01-15T19:23:08.834Z</time>
      </trkpt>
      <trkpt lat="47.15584" lon="6.5335">
        <ele>893</ele>
        <time>2023-01-15T19:23:22.369Z</time>
      </trkpt>
      <trkpt lat="47.15591" lon="6.53418">
        <ele>890.2</ele>
        <time>2023-01-15T19:23:28.809Z</time>
      </trkpt>
      <trkpt lat="47.15603" lon="6.53472">
        <ele>886.4</ele>
        <time>2023-01-15T19:23:34.076Z</time>
      </trkpt>
      <trkpt lat="47.15637" lon="6.53538">
        <ele>884.1</ele>
        <time>2023-01-15T19:23:41.806Z</time>
      </trkpt>
      <trkpt lat="47.15656" lon="6.53565">
        <ele>882.3</ele>
        <time>2023-01-15T19:23:45.413Z</time>
      </trkpt>
      <trkpt lat="47.15652" lon="6.53593">
        <ele>880.6</ele>
        <time>2023-01-15T19:23:48.095Z</time>
      </trkpt>
      <trkpt lat="47.1562" lon="6.53615">
        <ele>879.2</ele>
        <time>2023-01-15T19:23:53.043Z</time>
      </trkpt>
      <trkpt lat="47.15587" lon="6.53621">
        <ele>877.8</ele>
        <time>2023-01-15T19:23:57.683Z</time>
      </trkpt>
      <trkpt lat="47.15527" lon="6.53597">
        <ele>875.4</ele>
        <time>2023-01-15T19:24:05.990Z</time>
      </trkpt>
      <trkpt lat="47.15441" lon="6.53549">
        <ele>870.9</ele>
        <time>2023-01-15T19:24:17.995Z</time>
      </trkpt>
      <trkpt lat="47.15403" lon="6.53506">
        <ele>869.2</ele>
        <time>2023-01-15T19:24:24.232Z</time>
      </trkpt>
      <trkpt lat="47.15366" lon="6.53463">
        <ele>867.3</ele>
        <time>2023-01-15T19:24:30.481Z</time>
      </trkpt>
      <trkpt lat="47.15356" lon="6.53455">
        <ele>866.4</ele>
        <time>2023-01-15T19:24:31.753Z</time>
      </trkpt>
      <trkpt lat="47.15202" lon="6.53325">
        <ele>851.7</ele>
        <time>2023-01-15T19:24:55.558Z</time>
      </trkpt>
      <trkpt lat="47.15088" lon="6.53165">
        <ele>844.6</ele>
        <time>2023-01-15T19:25:18.228Z</time>
      </trkpt>
      <trkpt lat="47.15032" lon="6.53097">
        <ele>838.9</ele>
        <time>2023-01-15T19:25:29.147Z</time>
      </trkpt>
      <trkpt lat="47.14996" lon="6.53054">
        <ele>835.2</ele>
        <time>2023-01-15T19:25:36.171Z</time>
      </trkpt>
      <trkpt lat="47.14929" lon="6.5298">
        <ele>826</ele>
        <time>2023-01-15T19:25:48.656Z</time>
      </trkpt>
      <trkpt lat="47.14907" lon="6.52939">
        <ele>827.6</ele>
        <time>2023-01-15T19:25:53.644Z</time>
      </trkpt>
      <trkpt lat="47.14878" lon="6.52905">
        <ele>828</ele>
        <time>2023-01-15T19:25:58.869Z</time>
      </trkpt>
      <trkpt lat="47.14856" lon="6.52895">
        <ele>826.9</ele>
        <time>2023-01-15T19:26:02.029Z</time>
      </trkpt>
      <trkpt lat="47.1484" lon="6.52903">
        <ele>825.2</ele>
        <time>2023-01-15T19:26:04.432Z</time>
      </trkpt>
      <trkpt lat="47.14827" lon="6.52919">
        <ele>823.3</ele>
        <time>2023-01-15T19:26:06.835Z</time>
      </trkpt>
      <trkpt lat="47.14812" lon="6.5298">
        <ele>819.5</ele>
        <time>2023-01-15T19:26:13.117Z</time>
      </trkpt>
      <trkpt lat="47.14807" lon="6.52997">
        <ele>819.9</ele>
        <time>2023-01-15T19:26:14.787Z</time>
      </trkpt>
      <trkpt lat="47.14793" lon="6.53006">
        <ele>818.7</ele>
        <time>2023-01-15T19:26:16.898Z</time>
      </trkpt>
      <trkpt lat="47.1478" lon="6.53">
        <ele>817.3</ele>
        <time>2023-01-15T19:26:18.680Z</time>
      </trkpt>
      <trkpt lat="47.14771" lon="6.52985">
        <ele>815.6</ele>
        <time>2023-01-15T19:26:20.460Z</time>
      </trkpt>
      <trkpt lat="47.14764" lon="6.52949">
        <ele>814.4</ele>
        <time>2023-01-15T19:26:23.824Z</time>
      </trkpt>
      <trkpt lat="47.14759" lon="6.52901">
        <ele>814</ele>
        <time>2023-01-15T19:26:28.273Z</time>
      </trkpt>
      <trkpt lat="47.14747" lon="6.52871">
        <ele>812.7</ele>
        <time>2023-01-15T19:26:31.585Z</time>
      </trkpt>
      <trkpt lat="47.14726" lon="6.52847">
        <ele>810.9</ele>
        <time>2023-01-15T19:26:35.389Z</time>
      </trkpt>
      <trkpt lat="47.1469" lon="6.52838">
        <ele>807.6</ele>
        <time>2023-01-15T19:26:40.820Z</time>
      </trkpt>
      <trkpt lat="47.14676" lon="6.52837">
        <ele>806.5</ele>
        <time>2023-01-15T19:26:42.818Z</time>
      </trkpt>
      <trkpt lat="47.14635" lon="6.52845">
        <ele>803.8</ele>
        <time>2023-01-15T19:26:48.919Z</time>
      </trkpt>
      <trkpt lat="47.14542" lon="6.52845">
        <ele>799.4</ele>
        <time>2023-01-15T19:27:02.166Z</time>
      </trkpt>
      <trkpt lat="47.14548" lon="6.52735">
        <ele>795.6</ele>
        <time>2023-01-15T19:27:13.093Z</time>
      </trkpt>
      <trkpt lat="47.14551" lon="6.52658">
        <ele>793.4</ele>
        <time>2023-01-15T19:27:20.614Z</time>
      </trkpt>
      <trkpt lat="47.14554" lon="6.52593">
        <ele>791.8</ele>
        <time>2023-01-15T19:27:27.162Z</time>
      </trkpt>
      <trkpt lat="47.14553" lon="6.52574">
        <ele>791.6</ele>
        <time>2023-01-15T19:27:29.120Z</time>
      </trkpt>
      <trkpt lat="47.14546" lon="6.52556">
        <ele>790.6</ele>
        <time>2023-01-15T19:27:31.198Z</time>
      </trkpt>
      <trkpt lat="47.1454" lon="6.52548">
        <ele>789.8</ele>
        <time>2023-01-15T19:27:32.633Z</time>
      </trkpt>
      <trkpt lat="47.14526" lon="6.52539">
        <ele>787.9</ele>
        <time>2023-01-15T19:27:35.170Z</time>
      </trkpt>
      <trkpt lat="47.14517" lon="6.52538">
        <ele>787.6</ele>
        <time>2023-01-15T19:27:36.635Z</time>
      </trkpt>
      <trkpt lat="47.14501" lon="6.52538">
        <ele>787</ele>
        <time>2023-01-15T19:27:39.512Z</time>
      </trkpt>
      <trkpt lat="47.14483" lon="6.5254">
        <ele>790</ele>
        <time>2023-01-15T19:27:42.568Z</time>
      </trkpt>
      <trkpt lat="47.14459" lon="6.52541">
        <ele>789.6</ele>
        <time>2023-01-15T19:27:47.150Z</time>
      </trkpt>
      <trkpt lat="47.14431" lon="6.52533">
        <ele>787.1</ele>
        <time>2023-01-15T19:27:52.623Z</time>
      </trkpt>
      <trkpt lat="47.14425" lon="6.52524">
        <ele>786.9</ele>
        <time>2023-01-15T19:27:54.307Z</time>
      </trkpt>
      <trkpt lat="47.14416" lon="6.52522">
        <ele>786.8</ele>
        <time>2023-01-15T19:27:55.809Z</time>
      </trkpt>
      <trkpt lat="47.1441" lon="6.52525">
        <ele>786.3</ele>
        <time>2023-01-15T19:27:57.187Z</time>
      </trkpt>
      <trkpt lat="47.14404" lon="6.52535">
        <ele>786.5</ele>
        <time>2023-01-15T19:27:59.197Z</time>
      </trkpt>
      <trkpt lat="47.14392" lon="6.52542">
        <ele>786.6</ele>
        <time>2023-01-15T19:28:01.705Z</time>
      </trkpt>
      <trkpt lat="47.14365" lon="6.52548">
        <ele>787.2</ele>
        <time>2023-01-15T19:28:07.302Z</time>
      </trkpt>
      <trkpt lat="47.1424" lon="6.52557">
        <ele>791.4</ele>
        <time>2023-01-15T19:28:35.379Z</time>
      </trkpt>
      <trkpt lat="47.14199" lon="6.52568">
        <ele>792.4</ele>
        <time>2023-01-15T19:28:44.246Z</time>
      </trkpt>
      <trkpt lat="47.14154" lon="6.52581">
        <ele>793</ele>
        <time>2023-01-15T19:28:53.824Z</time>
      </trkpt>
      <trkpt lat="47.14119" lon="6.52582">
        <ele>793.7</ele>
        <time>2023-01-15T19:29:00.995Z</time>
      </trkpt>
      <trkpt lat="47.13911" lon="6.5251">
        <ele>798.4</ele>
        <time>2023-01-15T19:29:37.902Z</time>
      </trkpt>
      <trkpt lat="47.13889" lon="6.52506">
        <ele>797.2</ele>
        <time>2023-01-15T19:29:41.096Z</time>
      </trkpt>
      <trkpt lat="47.13874" lon="6.52507">
        <ele>796.6</ele>
        <time>2023-01-15T19:29:43.273Z</time>
      </trkpt>
      <trkpt lat="47.13868" lon="6.52509">
        <ele>796.3</ele>
        <time>2023-01-15T19:29:44.169Z</time>
      </trkpt>
      <trkpt lat="47.13866" lon="6.5251">
        <ele>796.2</ele>
        <time>2023-01-15T19:29:44.539Z</time>
      </trkpt>
      <trkpt lat="47.13863" lon="6.52499">
        <ele>796.1</ele>
        <time>2023-01-15T19:29:45.675Z</time>
      </trkpt>
      <trkpt lat="47.13853" lon="6.52491">
        <ele>795.4</ele>
        <time>2023-01-15T19:29:47.548Z</time>
      </trkpt>
      <trkpt lat="47.13766" lon="6.52455">
        <ele>792.7</ele>
        <time>2023-01-15T19:30:01.264Z</time>
      </trkpt>
      <trkpt lat="47.13639" lon="6.524">
        <ele>787.6</ele>
        <time>2023-01-15T19:30:22.110Z</time>
      </trkpt>
      <trkpt lat="47.13588" lon="6.52384">
        <ele>784.5</ele>
        <time>2023-01-15T19:30:30.295Z</time>
      </trkpt>
      <trkpt lat="47.13572" lon="6.52388">
        <ele>784</ele>
        <time>2023-01-15T19:30:32.929Z</time>
      </trkpt>
      <trkpt lat="47.13556" lon="6.52398">
        <ele>783.7</ele>
        <time>2023-01-15T19:30:35.607Z</time>
      </trkpt>
      <trkpt lat="47.13537" lon="6.52418">
        <ele>784.3</ele>
        <time>2023-01-15T19:30:39.358Z</time>
      </trkpt>
      <trkpt lat="47.13524" lon="6.52439">
        <ele>784</ele>
        <time>2023-01-15T19:30:42.228Z</time>
      </trkpt>
      <trkpt lat="47.13504" lon="6.52469">
        <ele>783</ele>
        <time>2023-01-15T19:30:46.519Z</time>
      </trkpt>
      <trkpt lat="47.13493" lon="6.52481">
        <ele>782.5</ele>
        <time>2023-01-15T19:30:48.714Z</time>
      </trkpt>
      <trkpt lat="47.13472" lon="6.52495">
        <ele>782.8</ele>
        <time>2023-01-15T19:30:52.044Z</time>
      </trkpt>
      <trkpt lat="47.1345" lon="6.52499">
        <ele>782.1</ele>
        <time>2023-01-15T19:30:55.236Z</time>
      </trkpt>
      <trkpt lat="47.13418" lon="6.52493">
        <ele>781.3</ele>
        <time>2023-01-15T19:30:59.710Z</time>
      </trkpt>
      <trkpt lat="47.1341" lon="6.52491">
        <ele>780.9</ele>
        <time>2023-01-15T19:31:00.862Z</time>
      </trkpt>
      <trkpt lat="47.13355" lon="6.52455">
        <ele>777.9</ele>
        <time>2023-01-15T19:31:09.310Z</time>
      </trkpt>
      <trkpt lat="47.13316" lon="6.52428">
        <ele>774.7</ele>
        <time>2023-01-15T19:31:15.349Z</time>
      </trkpt>
      <trkpt lat="47.13287" lon="6.52408">
        <ele>773.3</ele>
        <time>2023-01-15T19:31:19.702Z</time>
      </trkpt>
      <trkpt lat="47.13267" lon="6.524">
        <ele>772.1</ele>
        <time>2023-01-15T19:31:22.492Z</time>
      </trkpt>
      <trkpt lat="47.1324" lon="6.52399">
        <ele>769.7</ele>
        <time>2023-01-15T19:31:26.331Z</time>
      </trkpt>
      <trkpt lat="47.13219" lon="6.52408">
        <ele>768.1</ele>
        <time>2023-01-15T19:31:29.398Z</time>
      </trkpt>
      <trkpt lat="47.13212" lon="6.52411">
        <ele>767.6</ele>
        <time>2023-01-15T19:31:30.363Z</time>
      </trkpt>
      <trkpt lat="47.13201" lon="6.52416">
        <ele>766.5</ele>
        <time>2023-01-15T19:31:32.084Z</time>
      </trkpt>
      <trkpt lat="47.13188" lon="6.52421">
        <ele>765.6</ele>
        <time>2023-01-15T19:31:33.872Z</time>
      </trkpt>
      <trkpt lat="47.13185" lon="6.52423">
        <ele>765.4</ele>
        <time>2023-01-15T19:31:34.430Z</time>
      </trkpt>
      <trkpt lat="47.13162" lon="6.52431">
        <ele>764.2</ele>
        <time>2023-01-15T19:31:37.932Z</time>
      </trkpt>
      <trkpt lat="47.13149" lon="6.52438">
        <ele>763.1</ele>
        <time>2023-01-15T19:31:39.910Z</time>
      </trkpt>
      <trkpt lat="47.13137" lon="6.52454">
        <ele>761.6</ele>
        <time>2023-01-15T19:31:42.455Z</time>
      </trkpt>
      <trkpt lat="47.13116" lon="6.52478">
        <ele>760</ele>
        <time>2023-01-15T19:31:46.415Z</time>
      </trkpt>
      <trkpt lat="47.13092" lon="6.52486">
        <ele>758.1</ele>
        <time>2023-01-15T19:31:49.979Z</time>
      </trkpt>
      <trkpt lat="47.13061" lon="6.52502">
        <ele>756.2</ele>
        <time>2023-01-15T19:31:54.966Z</time>
      </trkpt>
      <trkpt lat="47.13054" lon="6.52509">
        <ele>755.9</ele>
        <time>2023-01-15T19:31:56.203Z</time>
      </trkpt>
      <trkpt lat="47.13042" lon="6.52526">
        <ele>755.5</ele>
        <time>2023-01-15T19:31:58.846Z</time>
      </trkpt>
      <trkpt lat="47.1303" lon="6.52556">
        <ele>756</ele>
        <time>2023-01-15T19:32:02.638Z</time>
      </trkpt>
      <trkpt lat="47.13021" lon="6.52551">
        <ele>755.6</ele>
        <time>2023-01-15T19:32:03.978Z</time>
      </trkpt>
      <trkpt lat="47.13" lon="6.52535">
        <ele>754.3</ele>
        <time>2023-01-15T19:32:07.726Z</time>
      </trkpt>
      <trkpt lat="47.12997" lon="6.52533">
        <ele>754.1</ele>
        <time>2023-01-15T19:32:08.143Z</time>
      </trkpt>
      <trkpt lat="47.12979" lon="6.52521">
        <ele>753</ele>
        <time>2023-01-15T19:32:11.264Z</time>
      </trkpt>
      <trkpt lat="47.12958" lon="6.52506">
        <ele>751.7</ele>
        <time>2023-01-15T19:32:14.971Z</time>
      </trkpt>
    </trkseg>
  </trk>
</gpx>